<?xml version="1.0" encoding="UTF-8" standalone="no" ?>
<gpx xmlns="http://www.topografix.com/GPX/1/1" xmlns:xsi="http://www.w3.org/2001/XMLSchema-instance" xsi:schemaLocation="http://www.topografix.com/GPX/1/1 http://www.topografix.com/GPX/1/1/gpx.xsd" version="1.1" creator="VisuGPX - https://www.visugpx.com">
  <metadata>
    <name>uthg 33KM coupé blessure</name>
  </metadata>
  <trk>
    <name><![CDATA[uthg coupé]]></name>
    <extensions>
      <line xmlns="http://www.topografix.com/GPX/gpx_style/0/2">
        <color>0000FF</color>
        <width>4</width>
      </line>
    </extensions>
    <trkseg>
      <trkpt lat="46.08328" lon="6.72707">
        <ele>703.666927</ele>
        <time>2024-05-17T16:46:48.000Z</time>
      </trkpt>
      <trkpt lat="46.08325" lon="6.72727">
        <ele>703.666927</ele>
        <time>2024-05-17T16:46:57.855Z</time>
      </trkpt>
      <trkpt lat="46.0832" lon="6.72721">
        <ele>703.666927</ele>
        <time>2024-05-17T16:47:02.372Z</time>
      </trkpt>
      <trkpt lat="46.08309" lon="6.72718">
        <ele>703.666927</ele>
        <time>2024-05-17T16:47:10.145Z</time>
      </trkpt>
      <trkpt lat="46.08283" lon="6.72713">
        <ele>703.666927</ele>
        <time>2024-05-17T16:47:28.358Z</time>
      </trkpt>
      <trkpt lat="46.08271" lon="6.72706">
        <ele>703.666927</ele>
        <time>2024-05-17T16:47:37.346Z</time>
      </trkpt>
      <trkpt lat="46.08264" lon="6.72706">
        <ele>703.666927</ele>
        <time>2024-05-17T16:47:42.207Z</time>
      </trkpt>
      <trkpt lat="46.08262" lon="6.72706">
        <ele>703.666927</ele>
        <time>2024-05-17T16:47:43.595Z</time>
      </trkpt>
      <trkpt lat="46.08247" lon="6.72707">
        <ele>703.629845</ele>
        <time>2024-05-17T16:47:53.943Z</time>
      </trkpt>
      <trkpt lat="46.08229" lon="6.7271">
        <ele>703.482066</ele>
        <time>2024-05-17T16:48:06.214Z</time>
      </trkpt>
      <trkpt lat="46.08224" lon="6.7271">
        <ele>703.445622</ele>
        <time>2024-05-17T16:48:09.609Z</time>
      </trkpt>
      <trkpt lat="46.08221" lon="6.72711">
        <ele>703.418634</ele>
        <time>2024-05-17T16:48:11.691Z</time>
      </trkpt>
      <trkpt lat="46.08217" lon="6.72711">
        <ele>703.391647</ele>
        <time>2024-05-17T16:48:14.411Z</time>
      </trkpt>
      <trkpt lat="46.08189" lon="6.72714">
        <ele>703.169011</ele>
        <time>2024-05-17T16:48:33.439Z</time>
      </trkpt>
      <trkpt lat="46.08155" lon="6.72714">
        <ele>702.903496</ele>
        <time>2024-05-17T16:48:56.488Z</time>
      </trkpt>
      <trkpt lat="46.08126" lon="6.72714">
        <ele>702.670283</ele>
        <time>2024-05-17T16:49:16.134Z</time>
      </trkpt>
      <trkpt lat="46.08099" lon="6.72717">
        <ele>702.460935</ele>
        <time>2024-05-17T16:49:34.497Z</time>
      </trkpt>
      <trkpt lat="46.08098" lon="6.72707">
        <ele>702.407626</ele>
        <time>2024-05-17T16:49:39.251Z</time>
      </trkpt>
      <trkpt lat="46.08103" lon="6.72701">
        <ele>702.354945</ele>
        <time>2024-05-17T16:49:43.658Z</time>
      </trkpt>
      <trkpt lat="46.08091" lon="6.7268">
        <ele>702.177798</ele>
        <time>2024-05-17T16:49:56.391Z</time>
      </trkpt>
      <trkpt lat="46.0809" lon="6.72674">
        <ele>702.123631</ele>
        <time>2024-05-17T16:49:59.250Z</time>
      </trkpt>
      <trkpt lat="46.08101" lon="6.7265">
        <ele>701.887217</ele>
        <time>2024-05-17T16:50:12.612Z</time>
      </trkpt>
      <trkpt lat="46.08095" lon="6.72644">
        <ele>701.796173</ele>
        <time>2024-05-17T16:50:17.493Z</time>
      </trkpt>
      <trkpt lat="46.08103" lon="6.72629">
        <ele>701.636658</ele>
        <time>2024-05-17T16:50:26.274Z</time>
      </trkpt>
      <trkpt lat="46.08119" lon="6.72601">
        <ele>701.330888</ele>
        <time>2024-05-17T16:50:43.109Z</time>
      </trkpt>
      <trkpt lat="46.08122" lon="6.72596">
        <ele>701.275188</ele>
        <time>2024-05-17T16:50:46.177Z</time>
      </trkpt>
      <trkpt lat="46.08135" lon="6.72572">
        <ele>701.0182</ele>
        <time>2024-05-17T16:51:00.308Z</time>
      </trkpt>
      <trkpt lat="46.08156" lon="6.72533">
        <ele>700.601033</ele>
        <time>2024-05-17T16:51:23.218Z</time>
      </trkpt>
      <trkpt lat="46.08187" lon="6.72476">
        <ele>700.096825</ele>
        <time>2024-05-17T16:51:57.048Z</time>
      </trkpt>
      <trkpt lat="46.08192" lon="6.72467">
        <ele>700.147298</ele>
        <time>2024-05-17T16:52:02.711Z</time>
      </trkpt>
      <trkpt lat="46.08195" lon="6.72461">
        <ele>700.184426</ele>
        <time>2024-05-17T16:52:06.354Z</time>
      </trkpt>
      <trkpt lat="46.08224" lon="6.72408">
        <ele>700.505035</ele>
        <time>2024-05-17T16:52:39.561Z</time>
      </trkpt>
      <trkpt lat="46.08229" lon="6.72402">
        <ele>700.550653</ele>
        <time>2024-05-17T16:52:44.177Z</time>
      </trkpt>
      <trkpt lat="46.08236" lon="6.7241">
        <ele>700.612625</ele>
        <time>2024-05-17T16:52:50.514Z</time>
      </trkpt>
      <trkpt lat="46.08242" lon="6.7242">
        <ele>700.674484</ele>
        <time>2024-05-17T16:52:57.016Z</time>
      </trkpt>
      <trkpt lat="46.08258" lon="6.72435">
        <ele>700.806423</ele>
        <time>2024-05-17T16:53:10.554Z</time>
      </trkpt>
      <trkpt lat="46.08276" lon="6.7245">
        <ele>700.947681</ele>
        <time>2024-05-17T16:53:25.297Z</time>
      </trkpt>
      <trkpt lat="46.0828" lon="6.72452">
        <ele>700.977977</ele>
        <time>2024-05-17T16:53:28.302Z</time>
      </trkpt>
      <trkpt lat="46.08288" lon="6.72459">
        <ele>701.041827</ele>
        <time>2024-05-17T16:53:34.938Z</time>
      </trkpt>
      <trkpt lat="46.08305" lon="6.72474">
        <ele>701.175938</ele>
        <time>2024-05-17T16:53:49.068Z</time>
      </trkpt>
      <trkpt lat="46.08308" lon="6.72476">
        <ele>701.199081</ele>
        <time>2024-05-17T16:53:51.414Z</time>
      </trkpt>
      <trkpt lat="46.0831" lon="6.72478">
        <ele>701.21973</ele>
        <time>2024-05-17T16:53:53.149Z</time>
      </trkpt>
      <trkpt lat="46.08355" lon="6.72518">
        <ele>702.726206</ele>
        <time>2024-05-17T16:54:33.284Z</time>
      </trkpt>
      <trkpt lat="46.08361" lon="6.72529">
        <ele>703.062124</ele>
        <time>2024-05-17T16:54:40.799Z</time>
      </trkpt>
      <trkpt lat="46.08368" lon="6.72551">
        <ele>703.616158</ele>
        <time>2024-05-17T16:54:53.729Z</time>
      </trkpt>
      <trkpt lat="46.0837" lon="6.72566">
        <ele>704.000181</ele>
        <time>2024-05-17T16:55:01.975Z</time>
      </trkpt>
      <trkpt lat="46.08375" lon="6.72595">
        <ele>704.678291</ele>
        <time>2024-05-17T16:55:17.925Z</time>
      </trkpt>
      <trkpt lat="46.08376" lon="6.726">
        <ele>704.816221</ele>
        <time>2024-05-17T16:55:20.752Z</time>
      </trkpt>
      <trkpt lat="46.08375" lon="6.72621">
        <ele>705.303257</ele>
        <time>2024-05-17T16:55:32.010Z</time>
      </trkpt>
      <trkpt lat="46.08371" lon="6.72636">
        <ele>705.690534</ele>
        <time>2024-05-17T16:55:40.643Z</time>
      </trkpt>
      <trkpt lat="46.08375" lon="6.72639">
        <ele>705.857249</ele>
        <time>2024-05-17T16:55:44.161Z</time>
      </trkpt>
      <trkpt lat="46.08378" lon="6.72681">
        <ele>706.849754</ele>
        <time>2024-05-17T16:56:06.782Z</time>
      </trkpt>
      <trkpt lat="46.0839" lon="6.72685">
        <ele>707.268111</ele>
        <time>2024-05-17T16:56:16.297Z</time>
      </trkpt>
      <trkpt lat="46.08389" lon="6.72692">
        <ele>707.552548</ele>
        <time>2024-05-17T16:56:20.431Z</time>
      </trkpt>
      <trkpt lat="46.08392" lon="6.72692">
        <ele>707.855025</ele>
        <time>2024-05-17T16:56:23.331Z</time>
      </trkpt>
      <trkpt lat="46.08385" lon="6.72729">
        <ele>710.735986</ele>
        <time>2024-05-17T16:56:49.725Z</time>
      </trkpt>
      <trkpt lat="46.08388" lon="6.72743">
        <ele>711.82733</ele>
        <time>2024-05-17T16:56:59.777Z</time>
      </trkpt>
      <trkpt lat="46.08389" lon="6.72793">
        <ele>715.689755</ele>
        <time>2024-05-17T16:57:34.572Z</time>
      </trkpt>
      <trkpt lat="46.08411" lon="6.72793">
        <ele>718.082173</ele>
        <time>2024-05-17T16:57:56.436Z</time>
      </trkpt>
      <trkpt lat="46.08413" lon="6.7278">
        <ele>719.080826</ele>
        <time>2024-05-17T16:58:05.594Z</time>
      </trkpt>
      <trkpt lat="46.08414" lon="6.72777">
        <ele>719.377989</ele>
        <time>2024-05-17T16:58:08.058Z</time>
      </trkpt>
      <trkpt lat="46.08422" lon="6.72775">
        <ele>720.217824</ele>
        <time>2024-05-17T16:58:15.978Z</time>
      </trkpt>
      <trkpt lat="46.08423" lon="6.72762">
        <ele>721.243615</ele>
        <time>2024-05-17T16:58:25.133Z</time>
      </trkpt>
      <trkpt lat="46.08427" lon="6.7276">
        <ele>721.739764</ele>
        <time>2024-05-17T16:58:29.468Z</time>
      </trkpt>
      <trkpt lat="46.08439" lon="6.72769">
        <ele>723.203906</ele>
        <time>2024-05-17T16:58:42.887Z</time>
      </trkpt>
      <trkpt lat="46.08449" lon="6.72782">
        <ele>724.684582</ele>
        <time>2024-05-17T16:58:56.326Z</time>
      </trkpt>
      <trkpt lat="46.08459" lon="6.72781">
        <ele>725.808244</ele>
        <time>2024-05-17T16:59:06.406Z</time>
      </trkpt>
      <trkpt lat="46.08467" lon="6.7278">
        <ele>726.634769</ele>
        <time>2024-05-17T16:59:14.225Z</time>
      </trkpt>
      <trkpt lat="46.08484" lon="6.72787">
        <ele>729.488767</ele>
        <time>2024-05-17T16:59:35.509Z</time>
      </trkpt>
      <trkpt lat="46.08502" lon="6.72799">
        <ele>733.094076</ele>
        <time>2024-05-17T17:00:01.305Z</time>
      </trkpt>
      <trkpt lat="46.08507" lon="6.72791">
        <ele>734.486479</ele>
        <time>2024-05-17T17:00:11.195Z</time>
      </trkpt>
      <trkpt lat="46.08507" lon="6.72766">
        <ele>737.66336</ele>
        <time>2024-05-17T17:00:33.872Z</time>
      </trkpt>
      <trkpt lat="46.08508" lon="6.72727">
        <ele>742.537511</ele>
        <time>2024-05-17T17:01:08.848Z</time>
      </trkpt>
      <trkpt lat="46.0851" lon="6.72722">
        <ele>743.264255</ele>
        <time>2024-05-17T17:01:14.050Z</time>
      </trkpt>
      <trkpt lat="46.08531" lon="6.72739">
        <ele>747.572826</ele>
        <time>2024-05-17T17:01:45.031Z</time>
      </trkpt>
      <trkpt lat="46.08546" lon="6.72747">
        <ele>750.475955</ele>
        <time>2024-05-17T17:02:05.812Z</time>
      </trkpt>
      <trkpt lat="46.08593" lon="6.72755">
        <ele>758.99237</ele>
        <time>2024-05-17T17:03:06.936Z</time>
      </trkpt>
      <trkpt lat="46.08599" lon="6.72755">
        <ele>759.992766</ele>
        <time>2024-05-17T17:03:14.305Z</time>
      </trkpt>
      <trkpt lat="46.08602" lon="6.72751">
        <ele>760.424569</ele>
        <time>2024-05-17T17:03:18.322Z</time>
      </trkpt>
      <trkpt lat="46.08603" lon="6.72721">
        <ele>762.808615</ele>
        <time>2024-05-17T17:03:39.446Z</time>
      </trkpt>
      <trkpt lat="46.08605" lon="6.72713">
        <ele>763.488684</ele>
        <time>2024-05-17T17:03:45.445Z</time>
      </trkpt>
      <trkpt lat="46.08622" lon="6.7271">
        <ele>765.3775</ele>
        <time>2024-05-17T17:04:02.558Z</time>
      </trkpt>
      <trkpt lat="46.08649" lon="6.72754">
        <ele>769.998163</ele>
        <time>2024-05-17T17:04:43.724Z</time>
      </trkpt>
      <trkpt lat="46.08663" lon="6.72703">
        <ele>774.366246</ele>
        <time>2024-05-17T17:05:22.352Z</time>
      </trkpt>
      <trkpt lat="46.08678" lon="6.72669">
        <ele>777.516992</ele>
        <time>2024-05-17T17:05:50.521Z</time>
      </trkpt>
      <trkpt lat="46.08692" lon="6.72687">
        <ele>779.732038</ele>
        <time>2024-05-17T17:06:09.790Z</time>
      </trkpt>
      <trkpt lat="46.08689" lon="6.72724">
        <ele>781.810381</ele>
        <time>2024-05-17T17:06:33.068Z</time>
      </trkpt>
      <trkpt lat="46.08684" lon="6.72745">
        <ele>782.965466</ele>
        <time>2024-05-17T17:06:46.689Z</time>
      </trkpt>
      <trkpt lat="46.08692" lon="6.72759">
        <ele>783.903754</ele>
        <time>2024-05-17T17:06:57.801Z</time>
      </trkpt>
      <trkpt lat="46.08693" lon="6.72774">
        <ele>784.689286</ele>
        <time>2024-05-17T17:07:07.050Z</time>
      </trkpt>
      <trkpt lat="46.08686" lon="6.72804">
        <ele>786.353192</ele>
        <time>2024-05-17T17:07:26.519Z</time>
      </trkpt>
      <trkpt lat="46.08681" lon="6.72838">
        <ele>788.161899</ele>
        <time>2024-05-17T17:07:47.842Z</time>
      </trkpt>
      <trkpt lat="46.08681" lon="6.72858">
        <ele>789.202621</ele>
        <time>2024-05-17T17:08:00.112Z</time>
      </trkpt>
      <trkpt lat="46.08684" lon="6.72903">
        <ele>791.567096</ele>
        <time>2024-05-17T17:08:27.883Z</time>
      </trkpt>
      <trkpt lat="46.08684" lon="6.72925">
        <ele>792.701614</ele>
        <time>2024-05-17T17:08:41.350Z</time>
      </trkpt>
      <trkpt lat="46.08689" lon="6.72967">
        <ele>796.024008</ele>
        <time>2024-05-17T17:09:11.105Z</time>
      </trkpt>
      <trkpt lat="46.08695" lon="6.72984">
        <ele>797.753934</ele>
        <time>2024-05-17T17:09:25.329Z</time>
      </trkpt>
      <trkpt lat="46.08712" lon="6.72966">
        <ele>800.706482</ele>
        <time>2024-05-17T17:09:48.780Z</time>
      </trkpt>
      <trkpt lat="46.08735" lon="6.72951">
        <ele>804.132129</ele>
        <time>2024-05-17T17:10:16.412Z</time>
      </trkpt>
      <trkpt lat="46.08727" lon="6.73002">
        <ele>809.140782</ele>
        <time>2024-05-17T17:10:56.459Z</time>
      </trkpt>
      <trkpt lat="46.08736" lon="6.7305">
        <ele>813.848066</ele>
        <time>2024-05-17T17:11:34.317Z</time>
      </trkpt>
      <trkpt lat="46.08736" lon="6.73063">
        <ele>815.077801</ele>
        <time>2024-05-17T17:11:44.211Z</time>
      </trkpt>
      <trkpt lat="46.08749" lon="6.73144">
        <ele>823.101085</ele>
        <time>2024-05-17T17:12:48.127Z</time>
      </trkpt>
      <trkpt lat="46.08778" lon="6.73214">
        <ele>831.211387</ele>
        <time>2024-05-17T17:13:51.801Z</time>
      </trkpt>
      <trkpt lat="46.08833" lon="6.73299">
        <ele>842.607692</ele>
        <time>2024-05-17T17:15:21.895Z</time>
      </trkpt>
      <trkpt lat="46.0888" lon="6.73341">
        <ele>851.96637</ele>
        <time>2024-05-17T17:16:30.457Z</time>
      </trkpt>
      <trkpt lat="46.08892" lon="6.7335">
        <ele>854.411603</ele>
        <time>2024-05-17T17:16:47.982Z</time>
      </trkpt>
      <trkpt lat="46.08897" lon="6.7335">
        <ele>855.121549</ele>
        <time>2024-05-17T17:16:53.583Z</time>
      </trkpt>
      <trkpt lat="46.08897" lon="6.73338">
        <ele>856.538632</ele>
        <time>2024-05-17T17:17:03.942Z</time>
      </trkpt>
      <trkpt lat="46.08883" lon="6.73307">
        <ele>861.002897</ele>
        <time>2024-05-17T17:17:36.334Z</time>
      </trkpt>
      <trkpt lat="46.08871" lon="6.73266">
        <ele>866.271708</ele>
        <time>2024-05-17T17:18:14.816Z</time>
      </trkpt>
      <trkpt lat="46.0886" lon="6.73236">
        <ele>870.3283</ele>
        <time>2024-05-17T17:18:44.345Z</time>
      </trkpt>
      <trkpt lat="46.08857" lon="6.73217">
        <ele>872.766278</ele>
        <time>2024-05-17T17:19:01.829Z</time>
      </trkpt>
      <trkpt lat="46.08857" lon="6.73201">
        <ele>874.639724</ele>
        <time>2024-05-17T17:19:15.567Z</time>
      </trkpt>
      <trkpt lat="46.08859" lon="6.73195">
        <ele>875.638471</ele>
        <time>2024-05-17T17:19:22.440Z</time>
      </trkpt>
      <trkpt lat="46.08864" lon="6.73195">
        <ele>876.77618</ele>
        <time>2024-05-17T17:19:30.226Z</time>
      </trkpt>
      <trkpt lat="46.08897" lon="6.73226">
        <ele>885.896477</ele>
        <time>2024-05-17T17:20:32.553Z</time>
      </trkpt>
      <trkpt lat="46.08926" lon="6.73247">
        <ele>893.404092</ele>
        <time>2024-05-17T17:21:23.862Z</time>
      </trkpt>
      <trkpt lat="46.08957" lon="6.73288">
        <ele>903.007623</ele>
        <time>2024-05-17T17:22:29.561Z</time>
      </trkpt>
      <trkpt lat="46.08999" lon="6.73309">
        <ele>913.254357</ele>
        <time>2024-05-17T17:23:39.608Z</time>
      </trkpt>
      <trkpt lat="46.09024" lon="6.73332">
        <ele>920.558043</ele>
        <time>2024-05-17T17:24:29.425Z</time>
      </trkpt>
      <trkpt lat="46.09049" lon="6.73351">
        <ele>927.721596</ele>
        <time>2024-05-17T17:25:18.316Z</time>
      </trkpt>
      <trkpt lat="46.09066" lon="6.73368">
        <ele>932.846273</ele>
        <time>2024-05-17T17:25:53.271Z</time>
      </trkpt>
      <trkpt lat="46.09075" lon="6.73385">
        <ele>936.580935</ele>
        <time>2024-05-17T17:26:18.754Z</time>
      </trkpt>
      <trkpt lat="46.0908" lon="6.73391">
        <ele>938.316912</ele>
        <time>2024-05-17T17:26:30.645Z</time>
      </trkpt>
      <trkpt lat="46.09083" lon="6.73388">
        <ele>939.16428</ele>
        <time>2024-05-17T17:26:36.435Z</time>
      </trkpt>
      <trkpt lat="46.09081" lon="6.73349">
        <ele>945.974823</ele>
        <time>2024-05-17T17:27:22.903Z</time>
      </trkpt>
      <trkpt lat="46.09085" lon="6.73331">
        <ele>949.266488</ele>
        <time>2024-05-17T17:27:45.361Z</time>
      </trkpt>
      <trkpt lat="46.09086" lon="6.73295">
        <ele>955.50651</ele>
        <time>2024-05-17T17:28:27.930Z</time>
      </trkpt>
      <trkpt lat="46.09094" lon="6.73284">
        <ele>958.16898</ele>
        <time>2024-05-17T17:28:46.093Z</time>
      </trkpt>
      <trkpt lat="46.09102" lon="6.73286">
        <ele>960.328812</ele>
        <time>2024-05-17T17:29:00.883Z</time>
      </trkpt>
      <trkpt lat="46.09126" lon="6.73301">
        <ele>965.374356</ele>
        <time>2024-05-17T17:29:36.397Z</time>
      </trkpt>
      <trkpt lat="46.09139" lon="6.73299">
        <ele>967.720687</ele>
        <time>2024-05-17T17:29:53.252Z</time>
      </trkpt>
      <trkpt lat="46.09149" lon="6.73294">
        <ele>969.54874</ele>
        <time>2024-05-17T17:30:06.549Z</time>
      </trkpt>
      <trkpt lat="46.09186" lon="6.73264">
        <ele>977.281665</ele>
        <time>2024-05-17T17:31:01.843Z</time>
      </trkpt>
      <trkpt lat="46.09202" lon="6.73239">
        <ele>981.462752</ele>
        <time>2024-05-17T17:31:31.997Z</time>
      </trkpt>
      <trkpt lat="46.09215" lon="6.73191">
        <ele>987.851732</ele>
        <time>2024-05-17T17:32:17.946Z</time>
      </trkpt>
      <trkpt lat="46.09218" lon="6.73111">
        <ele>997.370455</ele>
        <time>2024-05-17T17:33:27.381Z</time>
      </trkpt>
      <trkpt lat="46.09227" lon="6.72998">
        <ele>1009.952686</ele>
        <time>2024-05-17T17:35:01.665Z</time>
      </trkpt>
      <trkpt lat="46.09245" lon="6.72922">
        <ele>1018.929225</ele>
        <time>2024-05-17T17:36:08.651Z</time>
      </trkpt>
      <trkpt lat="46.09267" lon="6.72868">
        <ele>1027.157018</ele>
        <time>2024-05-17T17:37:06.835Z</time>
      </trkpt>
      <trkpt lat="46.0931" lon="6.72817">
        <ele>1039.80542</ele>
        <time>2024-05-17T17:38:33.401Z</time>
      </trkpt>
      <trkpt lat="46.09328" lon="6.72787">
        <ele>1046.045116</ele>
        <time>2024-05-17T17:39:16.111Z</time>
      </trkpt>
      <trkpt lat="46.09329" lon="6.72784">
        <ele>1046.696881</ele>
        <time>2024-05-17T17:39:20.610Z</time>
      </trkpt>
      <trkpt lat="46.09335" lon="6.72753">
        <ele>1051.633281</ele>
        <time>2024-05-17T17:39:54.487Z</time>
      </trkpt>
      <trkpt lat="46.09348" lon="6.72709">
        <ele>1059.206437</ele>
        <time>2024-05-17T17:40:46.295Z</time>
      </trkpt>
      <trkpt lat="46.09374" lon="6.72683">
        <ele>1065.499536</ele>
        <time>2024-05-17T17:41:30.271Z</time>
      </trkpt>
      <trkpt lat="46.09425" lon="6.72645">
        <ele>1074.6691</ele>
        <time>2024-05-17T17:42:38.943Z</time>
      </trkpt>
      <trkpt lat="46.09466" lon="6.72623">
        <ele>1081.792188</ele>
        <time>2024-05-17T17:43:31.887Z</time>
      </trkpt>
      <trkpt lat="46.0954" lon="6.72561">
        <ele>1093.800582</ele>
        <time>2024-05-17T17:45:07.159Z</time>
      </trkpt>
      <trkpt lat="46.09587" lon="6.72526">
        <ele>1097.686486</ele>
        <time>2024-05-17T17:45:53.703Z</time>
      </trkpt>
      <trkpt lat="46.09655" lon="6.72459">
        <ele>1103.783248</ele>
        <time>2024-05-17T17:47:06.307Z</time>
      </trkpt>
      <trkpt lat="46.09676" lon="6.72444">
        <ele>1105.54083</ele>
        <time>2024-05-17T17:47:27.035Z</time>
      </trkpt>
      <trkpt lat="46.09681" lon="6.72444">
        <ele>1106.040103</ele>
        <time>2024-05-17T17:47:31.851Z</time>
      </trkpt>
      <trkpt lat="46.09703" lon="6.72465">
        <ele>1108.564189</ele>
        <time>2024-05-17T17:47:56.899Z</time>
      </trkpt>
      <trkpt lat="46.09661" lon="6.72488">
        <ele>1113.015256</ele>
        <time>2024-05-17T17:48:40.058Z</time>
      </trkpt>
      <trkpt lat="46.09639" lon="6.72514">
        <ele>1115.829239</ele>
        <time>2024-05-17T17:49:07.370Z</time>
      </trkpt>
      <trkpt lat="46.09613" lon="6.72552">
        <ele>1119.510445</ele>
        <time>2024-05-17T17:49:42.978Z</time>
      </trkpt>
      <trkpt lat="46.09579" lon="6.72584">
        <ele>1123.567731</ele>
        <time>2024-05-17T17:50:22.099Z</time>
      </trkpt>
      <trkpt lat="46.09523" lon="6.72677">
        <ele>1137.724417</ele>
        <time>2024-05-17T17:52:06.611Z</time>
      </trkpt>
      <trkpt lat="46.09512" lon="6.72715">
        <ele>1142.507081</ele>
        <time>2024-05-17T17:52:41.782Z</time>
      </trkpt>
      <trkpt lat="46.09499" lon="6.728">
        <ele>1152.466544</ele>
        <time>2024-05-17T17:53:55.434Z</time>
      </trkpt>
      <trkpt lat="46.09503" lon="6.72934">
        <ele>1167.438745</ele>
        <time>2024-05-17T17:55:47.217Z</time>
      </trkpt>
      <trkpt lat="46.09497" lon="6.73029">
        <ele>1178.107695</ele>
        <time>2024-05-17T17:57:06.813Z</time>
      </trkpt>
      <trkpt lat="46.095" lon="6.73056">
        <ele>1181.211796</ele>
        <time>2024-05-17T17:57:29.837Z</time>
      </trkpt>
      <trkpt lat="46.0952" lon="6.73096">
        <ele>1185.838045</ele>
        <time>2024-05-17T17:58:07.213Z</time>
      </trkpt>
      <trkpt lat="46.09532" lon="6.73157">
        <ele>1191.575239</ele>
        <time>2024-05-17T17:58:54.439Z</time>
      </trkpt>
      <trkpt lat="46.09543" lon="6.73196">
        <ele>1195.367966</ele>
        <time>2024-05-17T17:59:25.732Z</time>
      </trkpt>
      <trkpt lat="46.09546" lon="6.73221">
        <ele>1197.68257</ele>
        <time>2024-05-17T17:59:44.702Z</time>
      </trkpt>
      <trkpt lat="46.09564" lon="6.73272">
        <ele>1202.781443</ele>
        <time>2024-05-17T18:00:27.018Z</time>
      </trkpt>
      <trkpt lat="46.09572" lon="6.73282">
        <ele>1204.189342</ele>
        <time>2024-05-17T18:00:38.493Z</time>
      </trkpt>
      <trkpt lat="46.09582" lon="6.73281">
        <ele>1205.468678</ele>
        <time>2024-05-17T18:00:49.149Z</time>
      </trkpt>
      <trkpt lat="46.096" lon="6.73266">
        <ele>1208.060905</ele>
        <time>2024-05-17T18:01:11.016Z</time>
      </trkpt>
      <trkpt lat="46.09661" lon="6.73232">
        <ele>1215.917829</ele>
        <time>2024-05-17T18:02:18.691Z</time>
      </trkpt>
      <trkpt lat="46.09676" lon="6.73233">
        <ele>1217.756443</ele>
        <time>2024-05-17T18:02:34.359Z</time>
      </trkpt>
      <trkpt lat="46.09686" lon="6.73239">
        <ele>1219.094684</ele>
        <time>2024-05-17T18:02:45.705Z</time>
      </trkpt>
      <trkpt lat="46.09705" lon="6.73257">
        <ele>1221.773781</ele>
        <time>2024-05-17T18:03:09.038Z</time>
      </trkpt>
      <trkpt lat="46.09734" lon="6.73272">
        <ele>1225.51973</ele>
        <time>2024-05-17T18:03:41.086Z</time>
      </trkpt>
      <trkpt lat="46.09741" lon="6.73267">
        <ele>1226.503853</ele>
        <time>2024-05-17T18:03:49.341Z</time>
      </trkpt>
      <trkpt lat="46.09758" lon="6.73243">
        <ele>1227.899537</ele>
        <time>2024-05-17T18:04:09.263Z</time>
      </trkpt>
      <trkpt lat="46.0977" lon="6.73235">
        <ele>1228.26477</ele>
        <time>2024-05-17T18:04:19.272Z</time>
      </trkpt>
      <trkpt lat="46.09786" lon="6.73233">
        <ele>1228.725268</ele>
        <time>2024-05-17T18:04:31.472Z</time>
      </trkpt>
      <trkpt lat="46.09813" lon="6.73237">
        <ele>1229.502335</ele>
        <time>2024-05-17T18:04:52.087Z</time>
      </trkpt>
      <trkpt lat="46.09854" lon="6.73211">
        <ele>1230.775194</ele>
        <time>2024-05-17T18:05:26.082Z</time>
      </trkpt>
      <trkpt lat="46.09895" lon="6.73198">
        <ele>1231.954356</ele>
        <time>2024-05-17T18:05:57.912Z</time>
      </trkpt>
      <trkpt lat="46.09936" lon="6.73197">
        <ele>1232.025681</ele>
        <time>2024-05-17T18:06:26.537Z</time>
      </trkpt>
      <trkpt lat="46.0998" lon="6.73208">
        <ele>1230.888711</ele>
        <time>2024-05-17T18:06:55.242Z</time>
      </trkpt>
      <trkpt lat="46.09988" lon="6.73217">
        <ele>1230.646015</ele>
        <time>2024-05-17T18:07:01.794Z</time>
      </trkpt>
      <trkpt lat="46.09999" lon="6.73235">
        <ele>1230.204355</ele>
        <time>2024-05-17T18:07:12.453Z</time>
      </trkpt>
      <trkpt lat="46.10009" lon="6.73245">
        <ele>1229.902923</ele>
        <time>2024-05-17T18:07:20.291Z</time>
      </trkpt>
      <trkpt lat="46.1003" lon="6.73281">
        <ele>1229.07095</ele>
        <time>2024-05-17T18:07:41.257Z</time>
      </trkpt>
      <trkpt lat="46.10048" lon="6.73305">
        <ele>1228.434457</ele>
        <time>2024-05-17T18:07:56.990Z</time>
      </trkpt>
      <trkpt lat="46.1007" lon="6.73325">
        <ele>1227.224469</ele>
        <time>2024-05-17T18:08:12.791Z</time>
      </trkpt>
      <trkpt lat="46.10074" lon="6.73334">
        <ele>1226.420998</ele>
        <time>2024-05-17T18:08:17.294Z</time>
      </trkpt>
      <trkpt lat="46.10078" lon="6.73354">
        <ele>1224.974741</ele>
        <time>2024-05-17T18:08:26.063Z</time>
      </trkpt>
      <trkpt lat="46.1009" lon="6.73375">
        <ele>1223.039211</ele>
        <time>2024-05-17T18:08:37.527Z</time>
      </trkpt>
      <trkpt lat="46.10106" lon="6.73393">
        <ele>1220.894529</ele>
        <time>2024-05-17T18:08:49.855Z</time>
      </trkpt>
      <trkpt lat="46.10115" lon="6.73415">
        <ele>1219.079193</ele>
        <time>2024-05-17T18:09:00.616Z</time>
      </trkpt>
      <trkpt lat="46.10118" lon="6.73435">
        <ele>1217.617545</ele>
        <time>2024-05-17T18:09:09.236Z</time>
      </trkpt>
      <trkpt lat="46.10122" lon="6.73465">
        <ele>1215.415577</ele>
        <time>2024-05-17T18:09:22.106Z</time>
      </trkpt>
      <trkpt lat="46.10124" lon="6.73493">
        <ele>1213.400498</ele>
        <time>2024-05-17T18:09:33.964Z</time>
      </trkpt>
      <trkpt lat="46.1013" lon="6.73518">
        <ele>1211.491962</ele>
        <time>2024-05-17T18:09:45.109Z</time>
      </trkpt>
      <trkpt lat="46.10139" lon="6.73535">
        <ele>1209.92161</ele>
        <time>2024-05-17T18:09:54.119Z</time>
      </trkpt>
      <trkpt lat="46.1015" lon="6.73542">
        <ele>1208.072267</ele>
        <time>2024-05-17T18:10:01.424Z</time>
      </trkpt>
      <trkpt lat="46.10168" lon="6.7354">
        <ele>1204.320812</ele>
        <time>2024-05-17T18:10:12.392Z</time>
      </trkpt>
      <trkpt lat="46.1018" lon="6.73519">
        <ele>1200.470492</ele>
        <time>2024-05-17T18:10:23.856Z</time>
      </trkpt>
      <trkpt lat="46.10206" lon="6.73417">
        <ele>1184.877244</ele>
        <time>2024-05-17T18:11:09.637Z</time>
      </trkpt>
      <trkpt lat="46.10217" lon="6.73387">
        <ele>1180.058737</ele>
        <time>2024-05-17T18:11:23.933Z</time>
      </trkpt>
      <trkpt lat="46.10222" lon="6.73363">
        <ele>1176.415338</ele>
        <time>2024-05-17T18:11:34.489Z</time>
      </trkpt>
      <trkpt lat="46.10222" lon="6.73329">
        <ele>1171.822435</ele>
        <time>2024-05-17T18:11:48.812Z</time>
      </trkpt>
      <trkpt lat="46.1021" lon="6.73264">
        <ele>1166.105578</ele>
        <time>2024-05-17T18:12:17.148Z</time>
      </trkpt>
      <trkpt lat="46.10211" lon="6.73202">
        <ele>1160.792863</ele>
        <time>2024-05-17T18:12:43.274Z</time>
      </trkpt>
      <trkpt lat="46.10208" lon="6.73184">
        <ele>1159.1727</ele>
        <time>2024-05-17T18:12:51.072Z</time>
      </trkpt>
      <trkpt lat="46.10184" lon="6.73132">
        <ele>1153.848596</ele>
        <time>2024-05-17T18:13:17.387Z</time>
      </trkpt>
      <trkpt lat="46.10156" lon="6.73054">
        <ele>1150.475723</ele>
        <time>2024-05-17T18:13:54.389Z</time>
      </trkpt>
      <trkpt lat="46.10141" lon="6.73029">
        <ele>1150.877092</ele>
        <time>2024-05-17T18:14:11.197Z</time>
      </trkpt>
      <trkpt lat="46.10134" lon="6.73005">
        <ele>1151.195419</ele>
        <time>2024-05-17T18:14:24.439Z</time>
      </trkpt>
      <trkpt lat="46.10147" lon="6.73002">
        <ele>1151.426327</ele>
        <time>2024-05-17T18:14:34.094Z</time>
      </trkpt>
      <trkpt lat="46.10159" lon="6.72993">
        <ele>1151.671605</ele>
        <time>2024-05-17T18:14:44.030Z</time>
      </trkpt>
      <trkpt lat="46.10172" lon="6.72989">
        <ele>1151.890988</ele>
        <time>2024-05-17T18:14:53.746Z</time>
      </trkpt>
      <trkpt lat="46.10184" lon="6.72996">
        <ele>1152.130115</ele>
        <time>2024-05-17T18:15:03.266Z</time>
      </trkpt>
      <trkpt lat="46.10192" lon="6.73009">
        <ele>1152.334327</ele>
        <time>2024-05-17T18:15:12.088Z</time>
      </trkpt>
      <trkpt lat="46.10204" lon="6.73041">
        <ele>1152.786113</ele>
        <time>2024-05-17T18:15:30.607Z</time>
      </trkpt>
      <trkpt lat="46.10212" lon="6.73052">
        <ele>1152.976875</ele>
        <time>2024-05-17T18:15:38.705Z</time>
      </trkpt>
      <trkpt lat="46.10221" lon="6.7306">
        <ele>1153.200507</ele>
        <time>2024-05-17T18:15:46.546Z</time>
      </trkpt>
      <trkpt lat="46.1026" lon="6.73073">
        <ele>1154.658575</ele>
        <time>2024-05-17T18:16:17.718Z</time>
      </trkpt>
      <trkpt lat="46.10268" lon="6.73064">
        <ele>1155.034842</ele>
        <time>2024-05-17T18:16:25.636Z</time>
      </trkpt>
      <trkpt lat="46.10274" lon="6.73046">
        <ele>1155.533716</ele>
        <time>2024-05-17T18:16:36.406Z</time>
      </trkpt>
      <trkpt lat="46.10275" lon="6.73042">
        <ele>1155.649581</ele>
        <time>2024-05-17T18:16:38.723Z</time>
      </trkpt>
      <trkpt lat="46.10256" lon="6.72963">
        <ele>1157.739357</ele>
        <time>2024-05-17T18:17:23.818Z</time>
      </trkpt>
      <trkpt lat="46.10249" lon="6.7294">
        <ele>1158.380791</ele>
        <time>2024-05-17T18:17:37.398Z</time>
      </trkpt>
      <trkpt lat="46.10239" lon="6.7289">
        <ele>1159.657255</ele>
        <time>2024-05-17T18:18:05.402Z</time>
      </trkpt>
      <trkpt lat="46.10242" lon="6.72875">
        <ele>1159.731954</ele>
        <time>2024-05-17T18:18:13.080Z</time>
      </trkpt>
      <trkpt lat="46.10242" lon="6.72872">
        <ele>1159.744487</ele>
        <time>2024-05-17T18:18:14.552Z</time>
      </trkpt>
      <trkpt lat="46.1024" lon="6.72862">
        <ele>1159.791716</ele>
        <time>2024-05-17T18:18:19.665Z</time>
      </trkpt>
      <trkpt lat="46.10223" lon="6.72854">
        <ele>1159.914966</ele>
        <time>2024-05-17T18:18:32.349Z</time>
      </trkpt>
      <trkpt lat="46.10208" lon="6.72797">
        <ele>1160.20412</ele>
        <time>2024-05-17T18:19:02.328Z</time>
      </trkpt>
      <trkpt lat="46.10199" lon="6.72739">
        <ele>1160.480919</ele>
        <time>2024-05-17T18:19:31.543Z</time>
      </trkpt>
      <trkpt lat="46.10185" lon="6.72708">
        <ele>1160.654433</ele>
        <time>2024-05-17T18:19:49.731Z</time>
      </trkpt>
      <trkpt lat="46.10159" lon="6.72674">
        <ele>1161.049059</ele>
        <time>2024-05-17T18:20:14.964Z</time>
      </trkpt>
      <trkpt lat="46.10148" lon="6.72648">
        <ele>1162.139035</ele>
        <time>2024-05-17T18:20:32.243Z</time>
      </trkpt>
      <trkpt lat="46.10131" lon="6.72587">
        <ele>1164.451526</ele>
        <time>2024-05-17T18:21:09.432Z</time>
      </trkpt>
      <trkpt lat="46.10127" lon="6.72566">
        <ele>1165.264719</ele>
        <time>2024-05-17T18:21:21.878Z</time>
      </trkpt>
      <trkpt lat="46.10108" lon="6.72474">
        <ele>1168.666051</ele>
        <time>2024-05-17T18:22:16.245Z</time>
      </trkpt>
      <trkpt lat="46.10109" lon="6.72464">
        <ele>1169.051352</ele>
        <time>2024-05-17T18:22:22.041Z</time>
      </trkpt>
      <trkpt lat="46.10118" lon="6.72453">
        <ele>1169.669898</ele>
        <time>2024-05-17T18:22:31.719Z</time>
      </trkpt>
      <trkpt lat="46.10121" lon="6.72437">
        <ele>1170.410383</ele>
        <time>2024-05-17T18:22:41.530Z</time>
      </trkpt>
      <trkpt lat="46.10154" lon="6.72508">
        <ele>1176.456951</ele>
        <time>2024-05-17T18:23:39.055Z</time>
      </trkpt>
      <trkpt lat="46.1016" lon="6.72513">
        <ele>1177.21704</ele>
        <time>2024-05-17T18:23:45.965Z</time>
      </trkpt>
      <trkpt lat="46.10168" lon="6.72505">
        <ele>1178.202326</ele>
        <time>2024-05-17T18:23:55.387Z</time>
      </trkpt>
      <trkpt lat="46.1017" lon="6.72467">
        <ele>1180.900572</ele>
        <time>2024-05-17T18:24:21.042Z</time>
      </trkpt>
      <trkpt lat="46.10196" lon="6.72416">
        <ele>1185.428587</ele>
        <time>2024-05-17T18:25:03.814Z</time>
      </trkpt>
      <trkpt lat="46.10215" lon="6.72409">
        <ele>1187.437067</ele>
        <time>2024-05-17T18:25:22.875Z</time>
      </trkpt>
      <trkpt lat="46.10227" lon="6.72399">
        <ele>1188.898211</ele>
        <time>2024-05-17T18:25:36.488Z</time>
      </trkpt>
      <trkpt lat="46.10272" lon="6.72289">
        <ele>1198.262732</ele>
        <time>2024-05-17T18:27:03.571Z</time>
      </trkpt>
      <trkpt lat="46.10285" lon="6.72266">
        <ele>1200.481054</ele>
        <time>2024-05-17T18:27:23.951Z</time>
      </trkpt>
      <trkpt lat="46.10289" lon="6.72264">
        <ele>1200.880966</ele>
        <time>2024-05-17T18:27:27.954Z</time>
      </trkpt>
      <trkpt lat="46.10296" lon="6.72266">
        <ele>1201.662773</ele>
        <time>2024-05-17T18:27:35.066Z</time>
      </trkpt>
      <trkpt lat="46.10299" lon="6.72275">
        <ele>1202.393741</ele>
        <time>2024-05-17T18:27:41.870Z</time>
      </trkpt>
      <trkpt lat="46.10287" lon="6.72313">
        <ele>1205.458098</ele>
        <time>2024-05-17T18:28:10.350Z</time>
      </trkpt>
      <trkpt lat="46.10283" lon="6.72346">
        <ele>1207.908335</ele>
        <time>2024-05-17T18:28:33.171Z</time>
      </trkpt>
      <trkpt lat="46.10284" lon="6.72391">
        <ele>1211.80485</ele>
        <time>2024-05-17T18:29:06.022Z</time>
      </trkpt>
      <trkpt lat="46.10287" lon="6.72416">
        <ele>1213.944237</ele>
        <time>2024-05-17T18:29:24.322Z</time>
      </trkpt>
      <trkpt lat="46.10297" lon="6.72461">
        <ele>1217.933623</ele>
        <time>2024-05-17T18:29:58.425Z</time>
      </trkpt>
      <trkpt lat="46.10311" lon="6.72505">
        <ele>1222.024781</ele>
        <time>2024-05-17T18:30:33.378Z</time>
      </trkpt>
      <trkpt lat="46.10315" lon="6.72529">
        <ele>1224.160489</ele>
        <time>2024-05-17T18:30:51.386Z</time>
      </trkpt>
      <trkpt lat="46.10319" lon="6.72537">
        <ele>1224.991563</ele>
        <time>2024-05-17T18:30:58.498Z</time>
      </trkpt>
      <trkpt lat="46.10324" lon="6.72537">
        <ele>1225.580118</ele>
        <time>2024-05-17T18:31:03.628Z</time>
      </trkpt>
      <trkpt lat="46.10327" lon="6.72532">
        <ele>1226.180928</ele>
        <time>2024-05-17T18:31:08.562Z</time>
      </trkpt>
      <trkpt lat="46.10323" lon="6.7249">
        <ele>1229.785983</ele>
        <time>2024-05-17T18:31:39.254Z</time>
      </trkpt>
      <trkpt lat="46.10326" lon="6.72472">
        <ele>1231.57277</ele>
        <time>2024-05-17T18:31:53.485Z</time>
      </trkpt>
      <trkpt lat="46.10332" lon="6.72461">
        <ele>1232.886658</ele>
        <time>2024-05-17T18:32:04.096Z</time>
      </trkpt>
      <trkpt lat="46.10363" lon="6.72424">
        <ele>1238.427393</ele>
        <time>2024-05-17T18:32:48.463Z</time>
      </trkpt>
      <trkpt lat="46.10379" lon="6.72391">
        <ele>1242.200106</ele>
        <time>2024-05-17T18:33:18.960Z</time>
      </trkpt>
      <trkpt lat="46.10389" lon="6.72362">
        <ele>1245.336826</ele>
        <time>2024-05-17T18:33:43.901Z</time>
      </trkpt>
      <trkpt lat="46.10398" lon="6.72362">
        <ele>1246.568025</ele>
        <time>2024-05-17T18:33:53.792Z</time>
      </trkpt>
      <trkpt lat="46.10404" lon="6.72377">
        <ele>1248.235227</ele>
        <time>2024-05-17T18:34:07.087Z</time>
      </trkpt>
      <trkpt lat="46.10397" lon="6.72461">
        <ele>1256.194839</ele>
        <time>2024-05-17T18:35:11.295Z</time>
      </trkpt>
      <trkpt lat="46.10401" lon="6.72481">
        <ele>1258.109186</ele>
        <time>2024-05-17T18:35:26.918Z</time>
      </trkpt>
      <trkpt lat="46.10409" lon="6.72491">
        <ele>1259.520737</ele>
        <time>2024-05-17T18:35:38.406Z</time>
      </trkpt>
      <trkpt lat="46.10428" lon="6.72493">
        <ele>1262.12794</ele>
        <time>2024-05-17T18:35:59.347Z</time>
      </trkpt>
      <trkpt lat="46.1045" lon="6.7249">
        <ele>1265.026062</ele>
        <time>2024-05-17T18:36:23.139Z</time>
      </trkpt>
      <trkpt lat="46.10489" lon="6.72525">
        <ele>1271.212359</ele>
        <time>2024-05-17T18:37:13.232Z</time>
      </trkpt>
      <trkpt lat="46.10582" lon="6.72613">
        <ele>1285.340361</ele>
        <time>2024-05-17T18:39:11.211Z</time>
      </trkpt>
      <trkpt lat="46.10592" lon="6.72616">
        <ele>1286.581227</ele>
        <time>2024-05-17T18:39:21.832Z</time>
      </trkpt>
      <trkpt lat="46.10595" lon="6.72613">
        <ele>1287.00741</ele>
        <time>2024-05-17T18:39:25.564Z</time>
      </trkpt>
      <trkpt lat="46.10599" lon="6.72604">
        <ele>1287.887555</ele>
        <time>2024-05-17T18:39:33.196Z</time>
      </trkpt>
      <trkpt lat="46.10597" lon="6.72553">
        <ele>1292.193255</ele>
        <time>2024-05-17T18:40:10.034Z</time>
      </trkpt>
      <trkpt lat="46.106" lon="6.72511">
        <ele>1295.767024</ele>
        <time>2024-05-17T18:40:40.538Z</time>
      </trkpt>
      <trkpt lat="46.10609" lon="6.72443">
        <ele>1301.53463</ele>
        <time>2024-05-17T18:41:30.212Z</time>
      </trkpt>
      <trkpt lat="46.10614" lon="6.72428">
        <ele>1302.92091</ele>
        <time>2024-05-17T18:41:42.153Z</time>
      </trkpt>
      <trkpt lat="46.10625" lon="6.7242">
        <ele>1304.327662</ele>
        <time>2024-05-17T18:41:54.634Z</time>
      </trkpt>
      <trkpt lat="46.10636" lon="6.72425">
        <ele>1305.640064</ele>
        <time>2024-05-17T18:42:06.302Z</time>
      </trkpt>
      <trkpt lat="46.10643" lon="6.72439">
        <ele>1307.037769</ele>
        <time>2024-05-17T18:42:18.539Z</time>
      </trkpt>
      <trkpt lat="46.10653" lon="6.72481">
        <ele>1310.71694</ele>
        <time>2024-05-17T18:42:50.327Z</time>
      </trkpt>
      <trkpt lat="46.10657" lon="6.72491">
        <ele>1311.687676</ele>
        <time>2024-05-17T18:42:58.643Z</time>
      </trkpt>
      <trkpt lat="46.10671" lon="6.72506">
        <ele>1313.749757</ele>
        <time>2024-05-17T18:43:16.569Z</time>
      </trkpt>
      <trkpt lat="46.10679" lon="6.72508">
        <ele>1314.677979</ele>
        <time>2024-05-17T18:43:24.798Z</time>
      </trkpt>
      <trkpt lat="46.10686" lon="6.72506">
        <ele>1315.509979</ele>
        <time>2024-05-17T18:43:32.090Z</time>
      </trkpt>
      <trkpt lat="46.10697" lon="6.72493">
        <ele>1317.164723</ele>
        <time>2024-05-17T18:43:46.609Z</time>
      </trkpt>
      <trkpt lat="46.107" lon="6.72484">
        <ele>1318.035404</ele>
        <time>2024-05-17T18:43:53.920Z</time>
      </trkpt>
      <trkpt lat="46.10707" lon="6.72443">
        <ele>1321.478632</ele>
        <time>2024-05-17T18:44:23.942Z</time>
      </trkpt>
      <trkpt lat="46.10711" lon="6.72436">
        <ele>1322.096953</ele>
        <time>2024-05-17T18:44:29.968Z</time>
      </trkpt>
      <trkpt lat="46.10717" lon="6.72433">
        <ele>1322.710108</ele>
        <time>2024-05-17T18:44:36.016Z</time>
      </trkpt>
      <trkpt lat="46.10722" lon="6.72437">
        <ele>1323.266211</ele>
        <time>2024-05-17T18:44:41.474Z</time>
      </trkpt>
      <trkpt lat="46.10727" lon="6.72471">
        <ele>1325.715279</ele>
        <time>2024-05-17T18:45:04.831Z</time>
      </trkpt>
      <trkpt lat="46.10759" lon="6.72518">
        <ele>1330.271921</ele>
        <time>2024-05-17T18:45:48.812Z</time>
      </trkpt>
      <trkpt lat="46.10787" lon="6.72575">
        <ele>1335.108641</ele>
        <time>2024-05-17T18:46:35.468Z</time>
      </trkpt>
      <trkpt lat="46.1083" lon="6.72652">
        <ele>1340.660591</ele>
        <time>2024-05-17T18:47:37.344Z</time>
      </trkpt>
      <trkpt lat="46.10843" lon="6.72671">
        <ele>1341.602068</ele>
        <time>2024-05-17T18:47:52.449Z</time>
      </trkpt>
      <trkpt lat="46.10843" lon="6.72671">
        <ele>1341.602068</ele>
        <time>2024-05-17T18:47:52.449Z</time>
      </trkpt>
      <trkpt lat="46.10843" lon="6.72671">
        <ele>1341.602068</ele>
        <time>2024-05-17T18:47:52.449Z</time>
      </trkpt>
      <trkpt lat="46.10842" lon="6.72672">
        <ele>1341.635819</ele>
        <time>2024-05-17T18:47:53.371Z</time>
      </trkpt>
      <trkpt lat="46.10866" lon="6.7271">
        <ele>1343.485112</ele>
        <time>2024-05-17T18:48:22.556Z</time>
      </trkpt>
      <trkpt lat="46.10883" lon="6.72735">
        <ele>1344.744908</ele>
        <time>2024-05-17T18:48:42.437Z</time>
      </trkpt>
      <trkpt lat="46.1091" lon="6.7277">
        <ele>1346.628628</ele>
        <time>2024-05-17T18:49:12.165Z</time>
      </trkpt>
      <trkpt lat="46.10925" lon="6.72788">
        <ele>1347.64114</ele>
        <time>2024-05-17T18:49:28.144Z</time>
      </trkpt>
      <trkpt lat="46.10944" lon="6.72823">
        <ele>1348.064362</ele>
        <time>2024-05-17T18:49:50.475Z</time>
      </trkpt>
      <trkpt lat="46.10965" lon="6.72877">
        <ele>1345.978035</ele>
        <time>2024-05-17T18:50:16.554Z</time>
      </trkpt>
      <trkpt lat="46.10965" lon="6.72877">
        <ele>1345.957459</ele>
        <time>2024-05-17T18:50:16.554Z</time>
      </trkpt>
      <trkpt lat="46.10967" lon="6.72889">
        <ele>1345.54169</ele>
        <time>2024-05-17T18:50:21.753Z</time>
      </trkpt>
      <trkpt lat="46.10979" lon="6.7293">
        <ele>1344.044568</ele>
        <time>2024-05-17T18:50:40.498Z</time>
      </trkpt>
      <trkpt lat="46.11" lon="6.72983">
        <ele>1342.009949</ele>
        <time>2024-05-17T18:51:06.211Z</time>
      </trkpt>
      <trkpt lat="46.11006" lon="6.72992">
        <ele>1341.577617</ele>
        <time>2024-05-17T18:51:11.470Z</time>
      </trkpt>
      <trkpt lat="46.11019" lon="6.73">
        <ele>1340.893279</ele>
        <time>2024-05-17T18:51:20.057Z</time>
      </trkpt>
      <trkpt lat="46.11032" lon="6.73007">
        <ele>1340.1992</ele>
        <time>2024-05-17T18:51:28.487Z</time>
      </trkpt>
      <trkpt lat="46.1104" lon="6.73019">
        <ele>1339.109663</ele>
        <time>2024-05-17T18:51:35.499Z</time>
      </trkpt>
      <trkpt lat="46.1104" lon="6.7303">
        <ele>1337.891233</ele>
        <time>2024-05-17T18:51:40.133Z</time>
      </trkpt>
      <trkpt lat="46.11034" lon="6.73051">
        <ele>1335.252073</ele>
        <time>2024-05-17T18:51:49.700Z</time>
      </trkpt>
      <trkpt lat="46.11027" lon="6.7311">
        <ele>1328.446718</ele>
        <time>2024-05-17T18:52:14.912Z</time>
      </trkpt>
      <trkpt lat="46.11019" lon="6.73111">
        <ele>1327.09403</ele>
        <time>2024-05-17T18:52:19.790Z</time>
      </trkpt>
      <trkpt lat="46.11014" lon="6.73105">
        <ele>1326.048</ele>
        <time>2024-05-17T18:52:23.742Z</time>
      </trkpt>
      <trkpt lat="46.11011" lon="6.73111">
        <ele>1325.090295</ele>
        <time>2024-05-17T18:52:26.858Z</time>
      </trkpt>
      <trkpt lat="46.10988" lon="6.73093">
        <ele>1320.792243</ele>
        <time>2024-05-17T18:52:42.756Z</time>
      </trkpt>
      <trkpt lat="46.10978" lon="6.73124">
        <ele>1316.929658</ele>
        <time>2024-05-17T18:52:57.157Z</time>
      </trkpt>
      <trkpt lat="46.10996" lon="6.73164">
        <ele>1311.492008</ele>
        <time>2024-05-17T18:53:17.244Z</time>
      </trkpt>
      <trkpt lat="46.11021" lon="6.73207">
        <ele>1303.950296</ele>
        <time>2024-05-17T18:53:40.881Z</time>
      </trkpt>
      <trkpt lat="46.11037" lon="6.73227">
        <ele>1299.577633</ele>
        <time>2024-05-17T18:53:53.744Z</time>
      </trkpt>
      <trkpt lat="46.11057" lon="6.73228">
        <ele>1295.536895</ele>
        <time>2024-05-17T18:54:05.903Z</time>
      </trkpt>
      <trkpt lat="46.11063" lon="6.73239">
        <ele>1293.610465</ele>
        <time>2024-05-17T18:54:11.798Z</time>
      </trkpt>
      <trkpt lat="46.11079" lon="6.7324">
        <ele>1290.45682</ele>
        <time>2024-05-17T18:54:21.528Z</time>
      </trkpt>
      <trkpt lat="46.1109" lon="6.73235">
        <ele>1288.076779</ele>
        <time>2024-05-17T18:54:28.535Z</time>
      </trkpt>
      <trkpt lat="46.11099" lon="6.73239">
        <ele>1286.186003</ele>
        <time>2024-05-17T18:54:34.257Z</time>
      </trkpt>
      <trkpt lat="46.11118" lon="6.73257">
        <ele>1281.63993</ele>
        <time>2024-05-17T18:54:48.067Z</time>
      </trkpt>
      <trkpt lat="46.11131" lon="6.73283">
        <ele>1277.138533</ele>
        <time>2024-05-17T18:55:01.569Z</time>
      </trkpt>
      <trkpt lat="46.11124" lon="6.73307">
        <ele>1273.374299</ele>
        <time>2024-05-17T18:55:12.536Z</time>
      </trkpt>
      <trkpt lat="46.11127" lon="6.73326">
        <ele>1270.782992</ele>
        <time>2024-05-17T18:55:20.744Z</time>
      </trkpt>
      <trkpt lat="46.11141" lon="6.73343">
        <ele>1267.12134</ele>
        <time>2024-05-17T18:55:31.862Z</time>
      </trkpt>
      <trkpt lat="46.11147" lon="6.73359">
        <ele>1264.533721</ele>
        <time>2024-05-17T18:55:39.524Z</time>
      </trkpt>
      <trkpt lat="46.11148" lon="6.7336">
        <ele>1264.283747</ele>
        <time>2024-05-17T18:55:40.263Z</time>
      </trkpt>
      <trkpt lat="46.11156" lon="6.73368">
        <ele>1262.518427</ele>
        <time>2024-05-17T18:55:46.177Z</time>
      </trkpt>
      <trkpt lat="46.11159" lon="6.73413">
        <ele>1256.260267</ele>
        <time>2024-05-17T18:56:05.218Z</time>
      </trkpt>
      <trkpt lat="46.11142" lon="6.73453">
        <ele>1249.62901</ele>
        <time>2024-05-17T18:56:24.980Z</time>
      </trkpt>
      <trkpt lat="46.1113" lon="6.73474">
        <ele>1245.955104</ele>
        <time>2024-05-17T18:56:36.442Z</time>
      </trkpt>
      <trkpt lat="46.11114" lon="6.73493">
        <ele>1241.869941</ele>
        <time>2024-05-17T18:56:49.033Z</time>
      </trkpt>
      <trkpt lat="46.11108" lon="6.73495">
        <ele>1240.639377</ele>
        <time>2024-05-17T18:56:52.775Z</time>
      </trkpt>
      <trkpt lat="46.11105" lon="6.73508">
        <ele>1238.777443</ele>
        <time>2024-05-17T18:56:58.546Z</time>
      </trkpt>
      <trkpt lat="46.11112" lon="6.73517">
        <ele>1237.741089</ele>
        <time>2024-05-17T18:57:04.243Z</time>
      </trkpt>
      <trkpt lat="46.1111" lon="6.73528">
        <ele>1237.050729</ele>
        <time>2024-05-17T18:57:09.033Z</time>
      </trkpt>
      <trkpt lat="46.11115" lon="6.73537">
        <ele>1236.415656</ele>
        <time>2024-05-17T18:57:13.890Z</time>
      </trkpt>
      <trkpt lat="46.11121" lon="6.73537">
        <ele>1235.922147</ele>
        <time>2024-05-17T18:57:17.536Z</time>
      </trkpt>
      <trkpt lat="46.11134" lon="6.73543">
        <ele>1234.738287</ele>
        <time>2024-05-17T18:57:25.828Z</time>
      </trkpt>
      <trkpt lat="46.11178" lon="6.73578">
        <ele>1230.593836</ele>
        <time>2024-05-17T18:57:56.356Z</time>
      </trkpt>
      <trkpt lat="46.11193" lon="6.73583">
        <ele>1229.30382</ele>
        <time>2024-05-17T18:58:05.709Z</time>
      </trkpt>
      <trkpt lat="46.1123" lon="6.73588">
        <ele>1226.206887</ele>
        <time>2024-05-17T18:58:28.287Z</time>
      </trkpt>
      <trkpt lat="46.11279" lon="6.73589">
        <ele>1222.818636</ele>
        <time>2024-05-17T18:58:58.061Z</time>
      </trkpt>
      <trkpt lat="46.11306" lon="6.73596">
        <ele>1221.897778</ele>
        <time>2024-05-17T18:59:15.275Z</time>
      </trkpt>
      <trkpt lat="46.11321" lon="6.73585">
        <ele>1221.329899</ele>
        <time>2024-05-17T18:59:25.828Z</time>
      </trkpt>
      <trkpt lat="46.11335" lon="6.73563">
        <ele>1220.643771</ele>
        <time>2024-05-17T18:59:38.836Z</time>
      </trkpt>
      <trkpt lat="46.11358" lon="6.73593">
        <ele>1219.59009</ele>
        <time>2024-05-17T18:59:58.270Z</time>
      </trkpt>
      <trkpt lat="46.11366" lon="6.736">
        <ele>1219.263867</ele>
        <time>2024-05-17T19:00:04.119Z</time>
      </trkpt>
      <trkpt lat="46.11387" lon="6.73603">
        <ele>1218.575198</ele>
        <time>2024-05-17T19:00:17.398Z</time>
      </trkpt>
      <trkpt lat="46.11417" lon="6.73628">
        <ele>1217.407132</ele>
        <time>2024-05-17T19:00:39.129Z</time>
      </trkpt>
      <trkpt lat="46.11424" lon="6.73625">
        <ele>1217.071406</ele>
        <time>2024-05-17T19:00:43.565Z</time>
      </trkpt>
      <trkpt lat="46.1143" lon="6.73618">
        <ele>1216.639725</ele>
        <time>2024-05-17T19:00:48.254Z</time>
      </trkpt>
      <trkpt lat="46.11429" lon="6.7361">
        <ele>1216.334792</ele>
        <time>2024-05-17T19:00:51.677Z</time>
      </trkpt>
      <trkpt lat="46.11423" lon="6.73598">
        <ele>1215.736148</ele>
        <time>2024-05-17T19:00:57.909Z</time>
      </trkpt>
      <trkpt lat="46.11424" lon="6.73589">
        <ele>1215.358611</ele>
        <time>2024-05-17T19:01:01.748Z</time>
      </trkpt>
      <trkpt lat="46.11438" lon="6.73568">
        <ele>1214.210572</ele>
        <time>2024-05-17T19:01:14.019Z</time>
      </trkpt>
      <trkpt lat="46.11448" lon="6.73565">
        <ele>1213.655031</ele>
        <time>2024-05-17T19:01:20.224Z</time>
      </trkpt>
      <trkpt lat="46.11458" lon="6.73569">
        <ele>1213.062996</ele>
        <time>2024-05-17T19:01:26.529Z</time>
      </trkpt>
      <trkpt lat="46.11487" lon="6.73592">
        <ele>1211.174808</ele>
        <time>2024-05-17T19:01:46.635Z</time>
      </trkpt>
      <trkpt lat="46.11497" lon="6.73612">
        <ele>1210.186958</ele>
        <time>2024-05-17T19:01:57.021Z</time>
      </trkpt>
      <trkpt lat="46.11512" lon="6.73625">
        <ele>1209.186831</ele>
        <time>2024-05-17T19:02:07.653Z</time>
      </trkpt>
      <trkpt lat="46.11569" lon="6.73634">
        <ele>1206.424411</ele>
        <time>2024-05-17T19:02:42.490Z</time>
      </trkpt>
      <trkpt lat="46.116" lon="6.73617">
        <ele>1205.453778</ele>
        <time>2024-05-17T19:03:03.568Z</time>
      </trkpt>
      <trkpt lat="46.11627" lon="6.73615">
        <ele>1204.683788</ele>
        <time>2024-05-17T19:03:20.790Z</time>
      </trkpt>
      <trkpt lat="46.11648" lon="6.73626">
        <ele>1204.015616</ele>
        <time>2024-05-17T19:03:34.963Z</time>
      </trkpt>
      <trkpt lat="46.11653" lon="6.73639">
        <ele>1203.715204</ele>
        <time>2024-05-17T19:03:41.515Z</time>
      </trkpt>
      <trkpt lat="46.11654" lon="6.73665">
        <ele>1203.200479</ele>
        <time>2024-05-17T19:03:53.012Z</time>
      </trkpt>
      <trkpt lat="46.11661" lon="6.73676">
        <ele>1202.899429</ele>
        <time>2024-05-17T19:03:59.595Z</time>
      </trkpt>
      <trkpt lat="46.1167" lon="6.7368">
        <ele>1202.634085</ele>
        <time>2024-05-17T19:04:05.599Z</time>
      </trkpt>
      <trkpt lat="46.11678" lon="6.73683">
        <ele>1202.393477</ele>
        <time>2024-05-17T19:04:10.855Z</time>
      </trkpt>
      <trkpt lat="46.11707" lon="6.73693">
        <ele>1201.496375</ele>
        <time>2024-05-17T19:04:29.759Z</time>
      </trkpt>
      <trkpt lat="46.11724" lon="6.73693">
        <ele>1200.939789</ele>
        <time>2024-05-17T19:04:40.453Z</time>
      </trkpt>
      <trkpt lat="46.11756" lon="6.73684">
        <ele>1199.866946</ele>
        <time>2024-05-17T19:05:00.951Z</time>
      </trkpt>
      <trkpt lat="46.11769" lon="6.73669">
        <ele>1199.328732</ele>
        <time>2024-05-17T19:05:11.435Z</time>
      </trkpt>
      <trkpt lat="46.11784" lon="6.73638">
        <ele>1198.464737</ele>
        <time>2024-05-17T19:05:27.909Z</time>
      </trkpt>
      <trkpt lat="46.11791" lon="6.73631">
        <ele>1198.197313</ele>
        <time>2024-05-17T19:05:33.288Z</time>
      </trkpt>
      <trkpt lat="46.11803" lon="6.73625">
        <ele>1197.787686</ele>
        <time>2024-05-17T19:05:41.289Z</time>
      </trkpt>
      <trkpt lat="46.11808" lon="6.73629">
        <ele>1197.572282</ele>
        <time>2024-05-17T19:05:44.833Z</time>
      </trkpt>
      <trkpt lat="46.11806" lon="6.73645">
        <ele>1197.202973</ele>
        <time>2024-05-17T19:05:51.922Z</time>
      </trkpt>
      <trkpt lat="46.11785" lon="6.73676">
        <ele>1196.225096</ele>
        <time>2024-05-17T19:06:10.833Z</time>
      </trkpt>
      <trkpt lat="46.11781" lon="6.73695">
        <ele>1195.828846</ele>
        <time>2024-05-17T19:06:19.593Z</time>
      </trkpt>
      <trkpt lat="46.11787" lon="6.73704">
        <ele>1195.767984</ele>
        <time>2024-05-17T19:06:25.475Z</time>
      </trkpt>
      <trkpt lat="46.1179" lon="6.73713">
        <ele>1195.72093</ele>
        <time>2024-05-17T19:06:30.182Z</time>
      </trkpt>
      <trkpt lat="46.11796" lon="6.73735">
        <ele>1195.61021</ele>
        <time>2024-05-17T19:06:41.328Z</time>
      </trkpt>
      <trkpt lat="46.11805" lon="6.73748">
        <ele>1195.519358</ele>
        <time>2024-05-17T19:06:49.980Z</time>
      </trkpt>
      <trkpt lat="46.11832" lon="6.73774">
        <ele>1195.298298</ele>
        <time>2024-05-17T19:07:12.055Z</time>
      </trkpt>
      <trkpt lat="46.11858" lon="6.73784">
        <ele>1195.120811</ele>
        <time>2024-05-17T19:07:30.364Z</time>
      </trkpt>
      <trkpt lat="46.1186" lon="6.738">
        <ele>1195.044746</ele>
        <time>2024-05-17T19:07:38.029Z</time>
      </trkpt>
      <trkpt lat="46.11857" lon="6.7381">
        <ele>1194.989185</ele>
        <time>2024-05-17T19:07:43.156Z</time>
      </trkpt>
      <trkpt lat="46.11851" lon="6.73815">
        <ele>1194.939023</ele>
        <time>2024-05-17T19:07:47.862Z</time>
      </trkpt>
      <trkpt lat="46.11818" lon="6.73829">
        <ele>1194.706354</ele>
        <time>2024-05-17T19:08:11.256Z</time>
      </trkpt>
      <trkpt lat="46.11773" lon="6.73878">
        <ele>1198.417359</ele>
        <time>2024-05-17T19:08:59.607Z</time>
      </trkpt>
      <trkpt lat="46.11762" lon="6.73905">
        <ele>1200.322246</ele>
        <time>2024-05-17T19:09:19.661Z</time>
      </trkpt>
      <trkpt lat="46.11755" lon="6.73939">
        <ele>1202.474303</ele>
        <time>2024-05-17T19:09:42.355Z</time>
      </trkpt>
      <trkpt lat="46.11738" lon="6.73965">
        <ele>1204.639231</ele>
        <time>2024-05-17T19:10:05.213Z</time>
      </trkpt>
      <trkpt lat="46.11715" lon="6.74012">
        <ele>1208.168047</ele>
        <time>2024-05-17T19:10:42.146Z</time>
      </trkpt>
      <trkpt lat="46.11714" lon="6.74025">
        <ele>1208.976317</ele>
        <time>2024-05-17T19:10:50.562Z</time>
      </trkpt>
      <trkpt lat="46.11716" lon="6.74037">
        <ele>1209.719101</ele>
        <time>2024-05-17T19:10:58.440Z</time>
      </trkpt>
      <trkpt lat="46.11733" lon="6.7405">
        <ele>1210.594447</ele>
        <time>2024-05-17T19:11:13.870Z</time>
      </trkpt>
      <trkpt lat="46.11751" lon="6.7407">
        <ele>1210.860767</ele>
        <time>2024-05-17T19:11:30.230Z</time>
      </trkpt>
      <trkpt lat="46.11748" lon="6.74102">
        <ele>1211.129409</ele>
        <time>2024-05-17T19:11:46.361Z</time>
      </trkpt>
      <trkpt lat="46.11739" lon="6.7411">
        <ele>1211.254409</ele>
        <time>2024-05-17T19:11:53.976Z</time>
      </trkpt>
      <trkpt lat="46.11708" lon="6.74152">
        <ele>1211.765647</ele>
        <time>2024-05-17T19:12:24.626Z</time>
      </trkpt>
      <trkpt lat="46.11698" lon="6.74177">
        <ele>1211.999491</ele>
        <time>2024-05-17T19:12:39.032Z</time>
      </trkpt>
      <trkpt lat="46.11686" lon="6.7423">
        <ele>1212.46273</ele>
        <time>2024-05-17T19:13:06.884Z</time>
      </trkpt>
      <trkpt lat="46.1168" lon="6.74237">
        <ele>1212.550268</ele>
        <time>2024-05-17T19:13:12.434Z</time>
      </trkpt>
      <trkpt lat="46.11674" lon="6.74239">
        <ele>1212.429793</ele>
        <time>2024-05-17T19:13:16.462Z</time>
      </trkpt>
      <trkpt lat="46.11668" lon="6.74234">
        <ele>1211.435531</ele>
        <time>2024-05-17T19:13:20.672Z</time>
      </trkpt>
      <trkpt lat="46.1166" lon="6.74216">
        <ele>1209.658123</ele>
        <time>2024-05-17T19:13:29.677Z</time>
      </trkpt>
      <trkpt lat="46.11654" lon="6.74212">
        <ele>1208.734516</ele>
        <time>2024-05-17T19:13:33.693Z</time>
      </trkpt>
      <trkpt lat="46.11646" lon="6.74207">
        <ele>1207.703321</ele>
        <time>2024-05-17T19:13:38.990Z</time>
      </trkpt>
      <trkpt lat="46.11639" lon="6.74205">
        <ele>1206.696721</ele>
        <time>2024-05-17T19:13:43.326Z</time>
      </trkpt>
      <trkpt lat="46.11617" lon="6.74206">
        <ele>1203.92746</ele>
        <time>2024-05-17T19:13:56.698Z</time>
      </trkpt>
      <trkpt lat="46.11609" lon="6.74211">
        <ele>1202.83888</ele>
        <time>2024-05-17T19:14:01.995Z</time>
      </trkpt>
      <trkpt lat="46.11579" lon="6.74271">
        <ele>1196.30455</ele>
        <time>2024-05-17T19:14:33.152Z</time>
      </trkpt>
      <trkpt lat="46.11571" lon="6.7428">
        <ele>1194.996903</ele>
        <time>2024-05-17T19:14:39.316Z</time>
      </trkpt>
      <trkpt lat="46.11518" lon="6.74285">
        <ele>1188.153032</ele>
        <time>2024-05-17T19:15:11.585Z</time>
      </trkpt>
      <trkpt lat="46.11483" lon="6.74281">
        <ele>1183.617122</ele>
        <time>2024-05-17T19:15:32.916Z</time>
      </trkpt>
      <trkpt lat="46.11474" lon="6.74286">
        <ele>1182.334406</ele>
        <time>2024-05-17T19:15:38.776Z</time>
      </trkpt>
      <trkpt lat="46.11471" lon="6.7429">
        <ele>1181.827993</ele>
        <time>2024-05-17T19:15:41.258Z</time>
      </trkpt>
      <trkpt lat="46.11471" lon="6.74308">
        <ele>1180.218427</ele>
        <time>2024-05-17T19:15:48.839Z</time>
      </trkpt>
      <trkpt lat="46.1149" lon="6.74399">
        <ele>1171.559437</ele>
        <time>2024-05-17T19:16:28.865Z</time>
      </trkpt>
      <trkpt lat="46.11503" lon="6.74429">
        <ele>1168.345495</ele>
        <time>2024-05-17T19:16:43.766Z</time>
      </trkpt>
      <trkpt lat="46.11509" lon="6.74457">
        <ele>1165.865041</ele>
        <time>2024-05-17T19:16:56.109Z</time>
      </trkpt>
      <trkpt lat="46.11508" lon="6.74477">
        <ele>1164.47446</ele>
        <time>2024-05-17T19:17:04.554Z</time>
      </trkpt>
      <trkpt lat="46.11522" lon="6.7454">
        <ele>1159.918003</ele>
        <time>2024-05-17T19:17:32.417Z</time>
      </trkpt>
      <trkpt lat="46.1153" lon="6.74557">
        <ele>1158.543201</ele>
        <time>2024-05-17T19:17:41.071Z</time>
      </trkpt>
      <trkpt lat="46.11545" lon="6.74574">
        <ele>1156.708509</ele>
        <time>2024-05-17T19:17:52.660Z</time>
      </trkpt>
      <trkpt lat="46.11549" lon="6.74578">
        <ele>1156.202682</ele>
        <time>2024-05-17T19:17:55.617Z</time>
      </trkpt>
      <trkpt lat="46.11559" lon="6.74606">
        <ele>1154.05127</ele>
        <time>2024-05-17T19:18:08.883Z</time>
      </trkpt>
      <trkpt lat="46.11559" lon="6.74663">
        <ele>1150.151031</ele>
        <time>2024-05-17T19:18:32.889Z</time>
      </trkpt>
      <trkpt lat="46.11565" lon="6.74701">
        <ele>1147.082838</ele>
        <time>2024-05-17T19:18:49.303Z</time>
      </trkpt>
      <trkpt lat="46.11565" lon="6.74713">
        <ele>1145.9338</ele>
        <time>2024-05-17T19:18:54.357Z</time>
      </trkpt>
      <trkpt lat="46.11563" lon="6.74725">
        <ele>1144.702046</ele>
        <time>2024-05-17T19:18:59.555Z</time>
      </trkpt>
      <trkpt lat="46.11545" lon="6.74768">
        <ele>1139.888954</ele>
        <time>2024-05-17T19:19:20.711Z</time>
      </trkpt>
      <trkpt lat="46.11542" lon="6.74774">
        <ele>1139.266699</ele>
        <time>2024-05-17T19:19:23.826Z</time>
      </trkpt>
      <trkpt lat="46.11532" lon="6.74788">
        <ele>1137.252047</ele>
        <time>2024-05-17T19:19:32.293Z</time>
      </trkpt>
      <trkpt lat="46.11493" lon="6.7481">
        <ele>1131.442378</ele>
        <time>2024-05-17T19:19:57.734Z</time>
      </trkpt>
      <trkpt lat="46.11486" lon="6.74813">
        <ele>1130.428924</ele>
        <time>2024-05-17T19:20:02.171Z</time>
      </trkpt>
      <trkpt lat="46.1145" lon="6.74824">
        <ele>1125.390511</ele>
        <time>2024-05-17T19:20:24.528Z</time>
      </trkpt>
      <trkpt lat="46.11428" lon="6.74837">
        <ele>1122.407353</ele>
        <time>2024-05-17T19:20:38.972Z</time>
      </trkpt>
      <trkpt lat="46.11416" lon="6.74855">
        <ele>1120.589715</ele>
        <time>2024-05-17T19:20:49.490Z</time>
      </trkpt>
      <trkpt lat="46.11387" lon="6.7494">
        <ele>1113.571346</ele>
        <time>2024-05-17T19:21:29.391Z</time>
      </trkpt>
      <trkpt lat="46.1138" lon="6.74961">
        <ele>1111.835094</ele>
        <time>2024-05-17T19:21:39.205Z</time>
      </trkpt>
      <trkpt lat="46.11375" lon="6.74968">
        <ele>1111.030062</ele>
        <time>2024-05-17T19:21:43.438Z</time>
      </trkpt>
      <trkpt lat="46.11371" lon="6.7497">
        <ele>1110.645932</ele>
        <time>2024-05-17T19:21:46.010Z</time>
      </trkpt>
      <trkpt lat="46.11333" lon="6.74966">
        <ele>1106.502464</ele>
        <time>2024-05-17T19:22:09.158Z</time>
      </trkpt>
      <trkpt lat="46.11318" lon="6.7497">
        <ele>1104.905932</ele>
        <time>2024-05-17T19:22:18.426Z</time>
      </trkpt>
      <trkpt lat="46.11294" lon="6.7496">
        <ele>1105.608908</ele>
        <time>2024-05-17T19:22:37.370Z</time>
      </trkpt>
      <trkpt lat="46.11287" lon="6.74961">
        <ele>1106.116418</ele>
        <time>2024-05-17T19:22:43.532Z</time>
      </trkpt>
      <trkpt lat="46.11281" lon="6.74968">
        <ele>1106.606995</ele>
        <time>2024-05-17T19:22:50.101Z</time>
      </trkpt>
      <trkpt lat="46.11278" lon="6.74984">
        <ele>1107.357389</ele>
        <time>2024-05-17T19:22:59.938Z</time>
      </trkpt>
      <trkpt lat="46.11273" lon="6.75001">
        <ele>1108.174398</ele>
        <time>2024-05-17T19:23:10.844Z</time>
      </trkpt>
      <trkpt lat="46.11266" lon="6.75018">
        <ele>1109.101076</ele>
        <time>2024-05-17T19:23:22.670Z</time>
      </trkpt>
      <trkpt lat="46.11256" lon="6.75023">
        <ele>1109.820126</ele>
        <time>2024-05-17T19:23:31.811Z</time>
      </trkpt>
      <trkpt lat="46.11246" lon="6.75058">
        <ele>1111.55212</ele>
        <time>2024-05-17T19:23:54.331Z</time>
      </trkpt>
      <trkpt lat="46.11243" lon="6.75076">
        <ele>1112.40074</ele>
        <time>2024-05-17T19:24:05.348Z</time>
      </trkpt>
      <trkpt lat="46.11245" lon="6.75094">
        <ele>1113.221354</ele>
        <time>2024-05-17T19:24:16.154Z</time>
      </trkpt>
      <trkpt lat="46.1125" lon="6.75113">
        <ele>1114.120734</ele>
        <time>2024-05-17T19:24:28.157Z</time>
      </trkpt>
      <trkpt lat="46.11253" lon="6.75117">
        <ele>1114.385907</ele>
        <time>2024-05-17T19:24:31.650Z</time>
      </trkpt>
      <trkpt lat="46.11279" lon="6.75166">
        <ele>1118.929911</ele>
        <time>2024-05-17T19:25:13.786Z</time>
      </trkpt>
      <trkpt lat="46.11296" lon="6.75223">
        <ele>1126.265914</ele>
        <time>2024-05-17T19:26:07.386Z</time>
      </trkpt>
      <trkpt lat="46.11322" lon="6.75304">
        <ele>1136.94235</ele>
        <time>2024-05-17T19:27:25.075Z</time>
      </trkpt>
      <trkpt lat="46.11325" lon="6.7531">
        <ele>1137.88351</ele>
        <time>2024-05-17T19:27:31.790Z</time>
      </trkpt>
      <trkpt lat="46.1135" lon="6.75328">
        <ele>1142.631431</ele>
        <time>2024-05-17T19:28:06.525Z</time>
      </trkpt>
      <trkpt lat="46.11357" lon="6.75334">
        <ele>1144.070782</ele>
        <time>2024-05-17T19:28:16.914Z</time>
      </trkpt>
      <trkpt lat="46.11378" lon="6.75339">
        <ele>1147.636936</ele>
        <time>2024-05-17T19:28:43.136Z</time>
      </trkpt>
      <trkpt lat="46.11402" lon="6.75335">
        <ele>1151.188698</ele>
        <time>2024-05-17T19:29:10.701Z</time>
      </trkpt>
      <trkpt lat="46.11436" lon="6.75311">
        <ele>1156.717207</ele>
        <time>2024-05-17T19:29:53.737Z</time>
      </trkpt>
      <trkpt lat="46.11444" lon="6.75309">
        <ele>1158.061452</ele>
        <time>2024-05-17T19:30:03.665Z</time>
      </trkpt>
      <trkpt lat="46.11454" lon="6.7531">
        <ele>1159.435129</ele>
        <time>2024-05-17T19:30:14.691Z</time>
      </trkpt>
      <trkpt lat="46.11471" lon="6.75323">
        <ele>1162.272623</ele>
        <time>2024-05-17T19:30:36.682Z</time>
      </trkpt>
      <trkpt lat="46.11484" lon="6.75339">
        <ele>1164.778377</ele>
        <time>2024-05-17T19:30:56.153Z</time>
      </trkpt>
      <trkpt lat="46.11501" lon="6.7539">
        <ele>1170.649701</ele>
        <time>2024-05-17T19:31:41.354Z</time>
      </trkpt>
      <trkpt lat="46.11526" lon="6.75423">
        <ele>1175.599543</ele>
        <time>2024-05-17T19:32:19.883Z</time>
      </trkpt>
      <trkpt lat="46.11555" lon="6.75469">
        <ele>1181.959191</ele>
        <time>2024-05-17T19:33:09.159Z</time>
      </trkpt>
      <trkpt lat="46.11558" lon="6.75482">
        <ele>1183.371889</ele>
        <time>2024-05-17T19:33:20.066Z</time>
      </trkpt>
      <trkpt lat="46.11559" lon="6.75522">
        <ele>1187.398346</ele>
        <time>2024-05-17T19:33:51.503Z</time>
      </trkpt>
      <trkpt lat="46.11529" lon="6.75522">
        <ele>1191.877554</ele>
        <time>2024-05-17T19:34:26.024Z</time>
      </trkpt>
      <trkpt lat="46.11508" lon="6.75527">
        <ele>1194.954934</ele>
        <time>2024-05-17T19:34:50.092Z</time>
      </trkpt>
      <trkpt lat="46.11491" lon="6.75537">
        <ele>1197.631759</ele>
        <time>2024-05-17T19:35:10.946Z</time>
      </trkpt>
      <trkpt lat="46.11486" lon="6.7554">
        <ele>1198.399994</ele>
        <time>2024-05-17T19:35:17.009Z</time>
      </trkpt>
      <trkpt lat="46.11446" lon="6.75572">
        <ele>1202.790101</ele>
        <time>2024-05-17T19:36:00.479Z</time>
      </trkpt>
      <trkpt lat="46.11428" lon="6.7561">
        <ele>1205.306573</ele>
        <time>2024-05-17T19:36:29.072Z</time>
      </trkpt>
      <trkpt lat="46.11393" lon="6.75604">
        <ele>1208.066113</ele>
        <time>2024-05-17T19:37:00.596Z</time>
      </trkpt>
      <trkpt lat="46.11374" lon="6.75594">
        <ele>1209.691147</ele>
        <time>2024-05-17T19:37:18.812Z</time>
      </trkpt>
      <trkpt lat="46.11351" lon="6.75572">
        <ele>1211.893119</ele>
        <time>2024-05-17T19:37:43.621Z</time>
      </trkpt>
      <trkpt lat="46.11332" lon="6.75559">
        <ele>1213.547428</ele>
        <time>2024-05-17T19:38:02.453Z</time>
      </trkpt>
      <trkpt lat="46.1128" lon="6.75505">
        <ele>1207.884145</ele>
        <time>2024-05-17T19:38:41.381Z</time>
      </trkpt>
      <trkpt lat="46.11278" lon="6.75495">
        <ele>1207.01728</ele>
        <time>2024-05-17T19:38:45.765Z</time>
      </trkpt>
      <trkpt lat="46.11229" lon="6.75451">
        <ele>1200.342224</ele>
        <time>2024-05-17T19:39:20.832Z</time>
      </trkpt>
      <trkpt lat="46.11225" lon="6.75438">
        <ele>1199.110389</ele>
        <time>2024-05-17T19:39:26.822Z</time>
      </trkpt>
      <trkpt lat="46.11224" lon="6.75424">
        <ele>1198.009608</ele>
        <time>2024-05-17T19:39:32.750Z</time>
      </trkpt>
      <trkpt lat="46.11221" lon="6.75403">
        <ele>1196.253972</ele>
        <time>2024-05-17T19:39:41.781Z</time>
      </trkpt>
      <trkpt lat="46.112" lon="6.75348">
        <ele>1188.977935</ele>
        <time>2024-05-17T19:40:08.227Z</time>
      </trkpt>
      <trkpt lat="46.11194" lon="6.7533">
        <ele>1185.559587</ele>
        <time>2024-05-17T19:40:16.640Z</time>
      </trkpt>
      <trkpt lat="46.11197" lon="6.75325">
        <ele>1184.214097</ele>
        <time>2024-05-17T19:40:19.425Z</time>
      </trkpt>
      <trkpt lat="46.11226" lon="6.75341">
        <ele>1176.699003</ele>
        <time>2024-05-17T19:40:38.289Z</time>
      </trkpt>
      <trkpt lat="46.11253" lon="6.75357">
        <ele>1169.442357</ele>
        <time>2024-05-17T19:40:56.023Z</time>
      </trkpt>
      <trkpt lat="46.1129" lon="6.75367">
        <ele>1160.298541</ele>
        <time>2024-05-17T19:41:18.893Z</time>
      </trkpt>
      <trkpt lat="46.11295" lon="6.75365">
        <ele>1159.182988</ele>
        <time>2024-05-17T19:41:22.046Z</time>
      </trkpt>
      <trkpt lat="46.11273" lon="6.75297">
        <ele>1147.427369</ele>
        <time>2024-05-17T19:41:53.652Z</time>
      </trkpt>
      <trkpt lat="46.11273" lon="6.75291">
        <ele>1146.771489</ele>
        <time>2024-05-17T19:41:56.179Z</time>
      </trkpt>
      <trkpt lat="46.11254" lon="6.75235">
        <ele>1139.503161</ele>
        <time>2024-05-17T19:42:22.438Z</time>
      </trkpt>
      <trkpt lat="46.11226" lon="6.75181">
        <ele>1131.735192</ele>
        <time>2024-05-17T19:42:50.840Z</time>
      </trkpt>
      <trkpt lat="46.11221" lon="6.75171">
        <ele>1130.315934</ele>
        <time>2024-05-17T19:42:56.033Z</time>
      </trkpt>
      <trkpt lat="46.11217" lon="6.75169">
        <ele>1129.658876</ele>
        <time>2024-05-17T19:42:58.605Z</time>
      </trkpt>
      <trkpt lat="46.11206" lon="6.75153">
        <ele>1127.018789</ele>
        <time>2024-05-17T19:43:08.096Z</time>
      </trkpt>
      <trkpt lat="46.11197" lon="6.75127">
        <ele>1123.677618</ele>
        <time>2024-05-17T19:43:20.336Z</time>
      </trkpt>
      <trkpt lat="46.11187" lon="6.75107">
        <ele>1120.925719</ele>
        <time>2024-05-17T19:43:30.723Z</time>
      </trkpt>
      <trkpt lat="46.11183" lon="6.75097">
        <ele>1119.507153</ele>
        <time>2024-05-17T19:43:35.585Z</time>
      </trkpt>
      <trkpt lat="46.11162" lon="6.75069">
        <ele>1119.50117</ele>
        <time>2024-05-17T19:43:55.429Z</time>
      </trkpt>
      <trkpt lat="46.11143" lon="6.75054">
        <ele>1119.653025</ele>
        <time>2024-05-17T19:44:10.798Z</time>
      </trkpt>
      <trkpt lat="46.11106" lon="6.7503">
        <ele>1119.942608</ele>
        <time>2024-05-17T19:44:39.595Z</time>
      </trkpt>
      <trkpt lat="46.11065" lon="6.75019">
        <ele>1120.23422</ele>
        <time>2024-05-17T19:45:09.184Z</time>
      </trkpt>
      <trkpt lat="46.11015" lon="6.74975">
        <ele>1120.648564</ele>
        <time>2024-05-17T19:45:50.752Z</time>
      </trkpt>
      <trkpt lat="46.10949" lon="6.74924">
        <ele>1121.179788</ele>
        <time>2024-05-17T19:46:43.893Z</time>
      </trkpt>
      <trkpt lat="46.10901" lon="6.74923">
        <ele>1121.522804</ele>
        <time>2024-05-17T19:47:17.970Z</time>
      </trkpt>
      <trkpt lat="46.10864" lon="6.749">
        <ele>1121.811518</ele>
        <time>2024-05-17T19:47:46.572Z</time>
      </trkpt>
      <trkpt lat="46.10821" lon="6.74889">
        <ele>1115.571109</ele>
        <time>2024-05-17T19:48:13.105Z</time>
      </trkpt>
      <trkpt lat="46.10792" lon="6.74864">
        <ele>1109.845391</ele>
        <time>2024-05-17T19:48:33.631Z</time>
      </trkpt>
      <trkpt lat="46.10745" lon="6.74855">
        <ele>1101.85887</ele>
        <time>2024-05-17T19:49:02.436Z</time>
      </trkpt>
      <trkpt lat="46.10699" lon="6.74823">
        <ele>1093.013501</ele>
        <time>2024-05-17T19:49:33.464Z</time>
      </trkpt>
      <trkpt lat="46.10674" lon="6.74805">
        <ele>1086.845408</ele>
        <time>2024-05-17T19:49:50.441Z</time>
      </trkpt>
      <trkpt lat="46.10609" lon="6.74747">
        <ele>1067.227328</ele>
        <time>2024-05-17T19:50:36.878Z</time>
      </trkpt>
      <trkpt lat="46.10608" lon="6.74735">
        <ele>1065.234871</ele>
        <time>2024-05-17T19:50:41.969Z</time>
      </trkpt>
      <trkpt lat="46.10637" lon="6.74697">
        <ele>1055.142506</ele>
        <time>2024-05-17T19:51:05.773Z</time>
      </trkpt>
      <trkpt lat="46.10624" lon="6.74678">
        <ele>1050.39807</ele>
        <time>2024-05-17T19:51:17.018Z</time>
      </trkpt>
      <trkpt lat="46.10624" lon="6.74675">
        <ele>1049.895087</ele>
        <time>2024-05-17T19:51:18.282Z</time>
      </trkpt>
      <trkpt lat="46.10636" lon="6.74664">
        <ele>1046.205991</ele>
        <time>2024-05-17T19:51:26.920Z</time>
      </trkpt>
      <trkpt lat="46.10637" lon="6.7466">
        <ele>1045.554188</ele>
        <time>2024-05-17T19:51:28.711Z</time>
      </trkpt>
      <trkpt lat="46.10625" lon="6.74649">
        <ele>1042.806336</ele>
        <time>2024-05-17T19:51:37.350Z</time>
      </trkpt>
      <trkpt lat="46.10625" lon="6.74632">
        <ele>1040.663298</ele>
        <time>2024-05-17T19:51:44.511Z</time>
      </trkpt>
      <trkpt lat="46.10621" lon="6.74618">
        <ele>1038.596901</ele>
        <time>2024-05-17T19:51:50.889Z</time>
      </trkpt>
      <trkpt lat="46.10618" lon="6.74602">
        <ele>1036.47798</ele>
        <time>2024-05-17T19:51:57.871Z</time>
      </trkpt>
      <trkpt lat="46.10618" lon="6.74587">
        <ele>1034.54384</ele>
        <time>2024-05-17T19:52:04.189Z</time>
      </trkpt>
      <trkpt lat="46.10611" lon="6.74573">
        <ele>1032.314323</ele>
        <time>2024-05-17T19:52:11.460Z</time>
      </trkpt>
      <trkpt lat="46.10611" lon="6.74564">
        <ele>1031.182565</ele>
        <time>2024-05-17T19:52:15.251Z</time>
      </trkpt>
      <trkpt lat="46.10665" lon="6.74573">
        <ele>1021.071461</ele>
        <time>2024-05-17T19:52:48.277Z</time>
      </trkpt>
      <trkpt lat="46.10691" lon="6.74589">
        <ele>1015.813714</ele>
        <time>2024-05-17T19:53:05.451Z</time>
      </trkpt>
      <trkpt lat="46.10708" lon="6.74587">
        <ele>1012.58512</ele>
        <time>2024-05-17T19:53:15.814Z</time>
      </trkpt>
      <trkpt lat="46.1072" lon="6.74575">
        <ele>1010.212576</ele>
        <time>2024-05-17T19:53:24.686Z</time>
      </trkpt>
      <trkpt lat="46.10747" lon="6.74503">
        <ele>1001.529182</ele>
        <time>2024-05-17T19:53:59.166Z</time>
      </trkpt>
      <trkpt lat="46.10747" lon="6.74496">
        <ele>1000.870988</ele>
        <time>2024-05-17T19:54:02.114Z</time>
      </trkpt>
      <trkpt lat="46.10723" lon="6.74468">
        <ele>996.08737</ele>
        <time>2024-05-17T19:54:20.868Z</time>
      </trkpt>
      <trkpt lat="46.10713" lon="6.74454">
        <ele>994.011322</ele>
        <time>2024-05-17T19:54:29.335Z</time>
      </trkpt>
      <trkpt lat="46.10715" lon="6.74433">
        <ele>991.753079</ele>
        <time>2024-05-17T19:54:38.264Z</time>
      </trkpt>
      <trkpt lat="46.10709" lon="6.74416">
        <ele>989.741514</ele>
        <time>2024-05-17T19:54:46.299Z</time>
      </trkpt>
      <trkpt lat="46.10702" lon="6.74413">
        <ele>988.662998</ele>
        <time>2024-05-17T19:54:50.736Z</time>
      </trkpt>
      <trkpt lat="46.10674" lon="6.74413">
        <ele>984.297789</ele>
        <time>2024-05-17T19:55:07.747Z</time>
      </trkpt>
      <trkpt lat="46.10583" lon="6.74375">
        <ele>967.153054</ele>
        <time>2024-05-17T19:56:05.305Z</time>
      </trkpt>
      <trkpt lat="46.10543" lon="6.74371">
        <ele>959.835743</ele>
        <time>2024-05-17T19:56:29.666Z</time>
      </trkpt>
      <trkpt lat="46.10503" lon="6.74387">
        <ele>952.34343</ele>
        <time>2024-05-17T19:56:54.885Z</time>
      </trkpt>
      <trkpt lat="46.1045" lon="6.74382">
        <ele>942.329693</ele>
        <time>2024-05-17T19:57:27.154Z</time>
      </trkpt>
      <trkpt lat="46.10421" lon="6.74373">
        <ele>936.694854</ele>
        <time>2024-05-17T19:57:45.177Z</time>
      </trkpt>
      <trkpt lat="46.10395" lon="6.74358">
        <ele>931.288506</ele>
        <time>2024-05-17T19:58:02.190Z</time>
      </trkpt>
      <trkpt lat="46.10388" lon="6.74345">
        <ele>929.220425</ele>
        <time>2024-05-17T19:58:09.124Z</time>
      </trkpt>
      <trkpt lat="46.10384" lon="6.74327">
        <ele>926.69256</ele>
        <time>2024-05-17T19:58:17.086Z</time>
      </trkpt>
      <trkpt lat="46.10388" lon="6.74317">
        <ele>925.268615</ele>
        <time>2024-05-17T19:58:21.949Z</time>
      </trkpt>
      <trkpt lat="46.10383" lon="6.74314">
        <ele>924.189889</ele>
        <time>2024-05-17T19:58:25.240Z</time>
      </trkpt>
      <trkpt lat="46.10387" lon="6.7431">
        <ele>923.296238</ele>
        <time>2024-05-17T19:58:28.197Z</time>
      </trkpt>
      <trkpt lat="46.10382" lon="6.74308">
        <ele>922.296295</ele>
        <time>2024-05-17T19:58:31.349Z</time>
      </trkpt>
      <trkpt lat="46.10387" lon="6.74302">
        <ele>921.152111</ele>
        <time>2024-05-17T19:58:35.301Z</time>
      </trkpt>
      <trkpt lat="46.10379" lon="6.74303">
        <ele>919.649675</ele>
        <time>2024-05-17T19:58:40.180Z</time>
      </trkpt>
      <trkpt lat="46.10367" lon="6.74302">
        <ele>917.398658</ele>
        <time>2024-05-17T19:58:47.482Z</time>
      </trkpt>
      <trkpt lat="46.10354" lon="6.74315">
        <ele>914.949045</ele>
        <time>2024-05-17T19:58:57.093Z</time>
      </trkpt>
      <trkpt lat="46.10354" lon="6.74308">
        <ele>914.16966</ele>
        <time>2024-05-17T19:59:00.042Z</time>
      </trkpt>
      <trkpt lat="46.10357" lon="6.74291">
        <ele>912.212152</ele>
        <time>2024-05-17T19:59:07.432Z</time>
      </trkpt>
      <trkpt lat="46.10352" lon="6.74286">
        <ele>911.316899</ele>
        <time>2024-05-17T19:59:11.128Z</time>
      </trkpt>
      <trkpt lat="46.10341" lon="6.74298">
        <ele>909.212578</ele>
        <time>2024-05-17T19:59:19.508Z</time>
      </trkpt>
      <trkpt lat="46.10334" lon="6.74299">
        <ele>908.050185</ele>
        <time>2024-05-17T19:59:23.782Z</time>
      </trkpt>
      <trkpt lat="46.10329" lon="6.74317">
        <ele>906.060002</ele>
        <time>2024-05-17T19:59:31.950Z</time>
      </trkpt>
      <trkpt lat="46.10323" lon="6.74293">
        <ele>903.376329</ele>
        <time>2024-05-17T19:59:42.697Z</time>
      </trkpt>
      <trkpt lat="46.10322" lon="6.7429">
        <ele>902.974255</ele>
        <time>2024-05-17T19:59:44.099Z</time>
      </trkpt>
      <trkpt lat="46.10306" lon="6.7428">
        <ele>900.256766</ele>
        <time>2024-05-17T19:59:54.694Z</time>
      </trkpt>
      <trkpt lat="46.10234" lon="6.74288">
        <ele>889.056583</ele>
        <time>2024-05-17T20:00:38.567Z</time>
      </trkpt>
      <trkpt lat="46.10199" lon="6.74267">
        <ele>883.811277</ele>
        <time>2024-05-17T20:01:01.598Z</time>
      </trkpt>
      <trkpt lat="46.10147" lon="6.74253">
        <ele>876.489113</ele>
        <time>2024-05-17T20:01:33.737Z</time>
      </trkpt>
      <trkpt lat="46.1014" lon="6.74255">
        <ele>875.606027</ele>
        <time>2024-05-17T20:01:38.073Z</time>
      </trkpt>
      <trkpt lat="46.10136" lon="6.7426">
        <ele>874.759926</ele>
        <time>2024-05-17T20:01:41.289Z</time>
      </trkpt>
      <trkpt lat="46.1013" lon="6.74276">
        <ele>873.043528</ele>
        <time>2024-05-17T20:01:48.951Z</time>
      </trkpt>
      <trkpt lat="46.1013" lon="6.74284">
        <ele>872.268587</ele>
        <time>2024-05-17T20:01:52.322Z</time>
      </trkpt>
      <trkpt lat="46.10127" lon="6.74286">
        <ele>871.874688</ele>
        <time>2024-05-17T20:01:54.330Z</time>
      </trkpt>
      <trkpt lat="46.10122" lon="6.74319">
        <ele>868.728516</ele>
        <time>2024-05-17T20:02:08.560Z</time>
      </trkpt>
      <trkpt lat="46.10112" lon="6.74322">
        <ele>867.286096</ele>
        <time>2024-05-17T20:02:14.765Z</time>
      </trkpt>
      <trkpt lat="46.10082" lon="6.74314">
        <ele>863.352591</ele>
        <time>2024-05-17T20:02:33.301Z</time>
      </trkpt>
      <trkpt lat="46.10026" lon="6.74311">
        <ele>857.239863</ele>
        <time>2024-05-17T20:03:07.347Z</time>
      </trkpt>
      <trkpt lat="46.09985" lon="6.74286">
        <ele>852.417059</ele>
        <time>2024-05-17T20:03:34.392Z</time>
      </trkpt>
      <trkpt lat="46.09955" lon="6.74276">
        <ele>849.011055</ele>
        <time>2024-05-17T20:03:53.099Z</time>
      </trkpt>
      <trkpt lat="46.09907" lon="6.74249">
        <ele>843.462608</ele>
        <time>2024-05-17T20:04:24.401Z</time>
      </trkpt>
      <trkpt lat="46.09886" lon="6.74246">
        <ele>841.303132</ele>
        <time>2024-05-17T20:04:37.222Z</time>
      </trkpt>
      <trkpt lat="46.09855" lon="6.74252">
        <ele>837.974953</ele>
        <time>2024-05-17T20:04:56.225Z</time>
      </trkpt>
      <trkpt lat="46.09821" lon="6.74243">
        <ele>834.447108</ele>
        <time>2024-05-17T20:05:17.227Z</time>
      </trkpt>
      <trkpt lat="46.09789" lon="6.74217">
        <ele>830.59562</ele>
        <time>2024-05-17T20:05:39.542Z</time>
      </trkpt>
      <trkpt lat="46.09754" lon="6.74234">
        <ele>826.836711</ele>
        <time>2024-05-17T20:06:01.981Z</time>
      </trkpt>
      <trkpt lat="46.09721" lon="6.74278">
        <ele>822.969594</ele>
        <time>2024-05-17T20:06:29.286Z</time>
      </trkpt>
      <trkpt lat="46.09705" lon="6.74283">
        <ele>821.692757</ele>
        <time>2024-05-17T20:06:39.233Z</time>
      </trkpt>
      <trkpt lat="46.09687" lon="6.74272">
        <ele>820.046805</ele>
        <time>2024-05-17T20:06:51.110Z</time>
      </trkpt>
      <trkpt lat="46.09669" lon="6.7427">
        <ele>818.587506</ele>
        <time>2024-05-17T20:07:02.079Z</time>
      </trkpt>
      <trkpt lat="46.09652" lon="6.74276">
        <ele>817.127564</ele>
        <time>2024-05-17T20:07:12.712Z</time>
      </trkpt>
      <trkpt lat="46.0964" lon="6.74259">
        <ele>815.760388</ele>
        <time>2024-05-17T20:07:22.932Z</time>
      </trkpt>
      <trkpt lat="46.0963" lon="6.7421">
        <ele>812.796252</ele>
        <time>2024-05-17T20:07:44.451Z</time>
      </trkpt>
      <trkpt lat="46.09611" lon="6.74185">
        <ele>810.753492</ele>
        <time>2024-05-17T20:08:00.078Z</time>
      </trkpt>
      <trkpt lat="46.09594" lon="6.74169">
        <ele>809.261693</ele>
        <time>2024-05-17T20:08:12.412Z</time>
      </trkpt>
      <trkpt lat="46.0958" lon="6.74167">
        <ele>808.28753</ele>
        <time>2024-05-17T20:08:20.959Z</time>
      </trkpt>
      <trkpt lat="46.09565" lon="6.74175">
        <ele>807.097336</ele>
        <time>2024-05-17T20:08:30.676Z</time>
      </trkpt>
      <trkpt lat="46.09557" lon="6.74173">
        <ele>806.472281</ele>
        <time>2024-05-17T20:08:35.608Z</time>
      </trkpt>
      <trkpt lat="46.09466" lon="6.74123">
        <ele>799.310863</ele>
        <time>2024-05-17T20:09:34.773Z</time>
      </trkpt>
      <trkpt lat="46.09461" lon="6.74125">
        <ele>798.891143</ele>
        <time>2024-05-17T20:09:37.926Z</time>
      </trkpt>
      <trkpt lat="46.09457" lon="6.74133">
        <ele>798.424514</ele>
        <time>2024-05-17T20:09:42.081Z</time>
      </trkpt>
      <trkpt lat="46.09458" lon="6.74146">
        <ele>797.660827</ele>
        <time>2024-05-17T20:09:47.592Z</time>
      </trkpt>
      <trkpt lat="46.09454" lon="6.74155">
        <ele>797.052217</ele>
        <time>2024-05-17T20:09:52.096Z</time>
      </trkpt>
      <trkpt lat="46.09403" lon="6.74148">
        <ele>792.699682</ele>
        <time>2024-05-17T20:10:23.221Z</time>
      </trkpt>
      <trkpt lat="46.09367" lon="6.74124">
        <ele>789.242675</ele>
        <time>2024-05-17T20:10:47.317Z</time>
      </trkpt>
      <trkpt lat="46.09335" lon="6.74112">
        <ele>786.491938</ele>
        <time>2024-05-17T20:11:07.405Z</time>
      </trkpt>
      <trkpt lat="46.09314" lon="6.74099">
        <ele>784.505364</ele>
        <time>2024-05-17T20:11:21.290Z</time>
      </trkpt>
      <trkpt lat="46.09296" lon="6.74107">
        <ele>782.887404</ele>
        <time>2024-05-17T20:11:32.734Z</time>
      </trkpt>
      <trkpt lat="46.0928" lon="6.74103">
        <ele>781.696873</ele>
        <time>2024-05-17T20:11:42.600Z</time>
      </trkpt>
      <trkpt lat="46.09241" lon="6.74062">
        <ele>778.159494</ele>
        <time>2024-05-17T20:12:11.923Z</time>
      </trkpt>
      <trkpt lat="46.09219" lon="6.74049">
        <ele>776.457419</ele>
        <time>2024-05-17T20:12:26.368Z</time>
      </trkpt>
      <trkpt lat="46.0919" lon="6.73999">
        <ele>773.094372</ele>
        <time>2024-05-17T20:12:53.831Z</time>
      </trkpt>
      <trkpt lat="46.09166" lon="6.73974">
        <ele>770.936124</ele>
        <time>2024-05-17T20:13:11.819Z</time>
      </trkpt>
      <trkpt lat="46.09148" lon="6.73968">
        <ele>769.647768</ele>
        <time>2024-05-17T20:13:23.044Z</time>
      </trkpt>
      <trkpt lat="46.09116" lon="6.73971">
        <ele>769.400336</ele>
        <time>2024-05-17T20:13:44.790Z</time>
      </trkpt>
      <trkpt lat="46.09102" lon="6.73968">
        <ele>769.294641</ele>
        <time>2024-05-17T20:13:54.395Z</time>
      </trkpt>
      <trkpt lat="46.09093" lon="6.73947">
        <ele>769.159268</ele>
        <time>2024-05-17T20:14:05.998Z</time>
      </trkpt>
      <trkpt lat="46.09076" lon="6.73943">
        <ele>769.030641</ele>
        <time>2024-05-17T20:14:17.687Z</time>
      </trkpt>
      <trkpt lat="46.09068" lon="6.73936">
        <ele>768.959685</ele>
        <time>2024-05-17T20:14:24.036Z</time>
      </trkpt>
      <trkpt lat="46.09027" lon="6.73875">
        <ele>768.505951</ele>
        <time>2024-05-17T20:15:03.988Z</time>
      </trkpt>
      <trkpt lat="46.09017" lon="6.73863">
        <ele>768.403623</ele>
        <time>2024-05-17T20:15:12.806Z</time>
      </trkpt>
      <trkpt lat="46.09031" lon="6.73836">
        <ele>768.865508</ele>
        <time>2024-05-17T20:15:30.071Z</time>
      </trkpt>
      <trkpt lat="46.09031" lon="6.73821">
        <ele>769.869195</ele>
        <time>2024-05-17T20:15:39.975Z</time>
      </trkpt>
      <trkpt lat="46.09027" lon="6.73801">
        <ele>771.199318</ele>
        <time>2024-05-17T20:15:53.513Z</time>
      </trkpt>
      <trkpt lat="46.09018" lon="6.73783">
        <ele>772.650203</ele>
        <time>2024-05-17T20:16:08.053Z</time>
      </trkpt>
      <trkpt lat="46.08997" lon="6.73755">
        <ele>775.330168</ele>
        <time>2024-05-17T20:16:35.022Z</time>
      </trkpt>
      <trkpt lat="46.08944" lon="6.73697">
        <ele>781.625309</ele>
        <time>2024-05-17T20:17:37.958Z</time>
      </trkpt>
      <trkpt lat="46.08938" lon="6.73685">
        <ele>782.540268</ele>
        <time>2024-05-17T20:17:47.483Z</time>
      </trkpt>
      <trkpt lat="46.08935" lon="6.73671">
        <ele>783.471269</ele>
        <time>2024-05-17T20:17:56.996Z</time>
      </trkpt>
      <trkpt lat="46.08946" lon="6.73611">
        <ele>787.815177</ele>
        <time>2024-05-17T20:18:38.612Z</time>
      </trkpt>
      <trkpt lat="46.08944" lon="6.73587">
        <ele>789.651692</ele>
        <time>2024-05-17T20:18:55.320Z</time>
      </trkpt>
      <trkpt lat="46.08939" lon="6.73563">
        <ele>791.463214</ele>
        <time>2024-05-17T20:19:12.320Z</time>
      </trkpt>
      <trkpt lat="46.08915" lon="6.73528">
        <ele>795.133537</ele>
        <time>2024-05-17T20:19:46.098Z</time>
      </trkpt>
      <trkpt lat="46.08897" lon="6.73517">
        <ele>797.167202</ele>
        <time>2024-05-17T20:20:05.206Z</time>
      </trkpt>
      <trkpt lat="46.08863" lon="6.73432">
        <ele>804.376368</ele>
        <time>2024-05-17T20:21:12.171Z</time>
      </trkpt>
      <trkpt lat="46.0883" lon="6.73396">
        <ele>805.892838</ele>
        <time>2024-05-17T20:21:44.419Z</time>
      </trkpt>
      <trkpt lat="46.08789" lon="6.73347">
        <ele>807.833514</ele>
        <time>2024-05-17T20:22:25.892Z</time>
      </trkpt>
      <trkpt lat="46.0874" lon="6.73276">
        <ele>810.337318</ele>
        <time>2024-05-17T20:23:19.924Z</time>
      </trkpt>
      <trkpt lat="46.08735" lon="6.73264">
        <ele>810.704702</ele>
        <time>2024-05-17T20:23:27.519Z</time>
      </trkpt>
      <trkpt lat="46.08721" lon="6.73197">
        <ele>809.055196</ele>
        <time>2024-05-17T20:23:57.935Z</time>
      </trkpt>
      <trkpt lat="46.08717" lon="6.73168">
        <ele>808.216163</ele>
        <time>2024-05-17T20:24:10.529Z</time>
      </trkpt>
      <trkpt lat="46.08718" lon="6.7313">
        <ele>807.093057</ele>
        <time>2024-05-17T20:24:26.646Z</time>
      </trkpt>
      <trkpt lat="46.08733" lon="6.73083">
        <ele>805.609436</ele>
        <time>2024-05-17T20:24:48.654Z</time>
      </trkpt>
      <trkpt lat="46.08736" lon="6.73063">
        <ele>805.017506</ele>
        <time>2024-05-17T20:24:57.349Z</time>
      </trkpt>
      <trkpt lat="46.08736" lon="6.7305">
        <ele>804.641212</ele>
        <time>2024-05-17T20:25:02.873Z</time>
      </trkpt>
      <trkpt lat="46.08727" lon="6.73002">
        <ele>803.00511</ele>
        <time>2024-05-17T20:25:23.825Z</time>
      </trkpt>
      <trkpt lat="46.08735" lon="6.72951">
        <ele>799.821485</ele>
        <time>2024-05-17T20:25:45.858Z</time>
      </trkpt>
      <trkpt lat="46.08712" lon="6.72966">
        <ele>797.644058</ele>
        <time>2024-05-17T20:26:01.195Z</time>
      </trkpt>
      <trkpt lat="46.08695" lon="6.72984">
        <ele>795.767345</ele>
        <time>2024-05-17T20:26:14.009Z</time>
      </trkpt>
      <trkpt lat="46.08689" lon="6.72967">
        <ele>794.667761</ele>
        <time>2024-05-17T20:26:22.047Z</time>
      </trkpt>
      <trkpt lat="46.08684" lon="6.72925">
        <ele>792.087651</ele>
        <time>2024-05-17T20:26:40.003Z</time>
      </trkpt>
      <trkpt lat="46.08684" lon="6.72903">
        <ele>790.777137</ele>
        <time>2024-05-17T20:26:49.274Z</time>
      </trkpt>
      <trkpt lat="46.08681" lon="6.72858">
        <ele>788.045867</ele>
        <time>2024-05-17T20:27:08.323Z</time>
      </trkpt>
      <trkpt lat="46.08681" lon="6.72838">
        <ele>787.032148</ele>
        <time>2024-05-17T20:27:16.751Z</time>
      </trkpt>
      <trkpt lat="46.08686" lon="6.72804">
        <ele>785.355407</ele>
        <time>2024-05-17T20:27:31.396Z</time>
      </trkpt>
      <trkpt lat="46.08693" lon="6.72774">
        <ele>783.812901</ele>
        <time>2024-05-17T20:27:44.734Z</time>
      </trkpt>
      <trkpt lat="46.08692" lon="6.72759">
        <ele>783.084682</ele>
        <time>2024-05-17T20:27:51.084Z</time>
      </trkpt>
      <trkpt lat="46.08684" lon="6.72745">
        <ele>782.214852</ele>
        <time>2024-05-17T20:27:58.727Z</time>
      </trkpt>
      <trkpt lat="46.08689" lon="6.72724">
        <ele>781.144044</ele>
        <time>2024-05-17T20:28:08.083Z</time>
      </trkpt>
      <trkpt lat="46.08692" lon="6.72687">
        <ele>779.337053</ele>
        <time>2024-05-17T20:28:23.780Z</time>
      </trkpt>
      <trkpt lat="46.08678" lon="6.72669">
        <ele>777.982248</ele>
        <time>2024-05-17T20:28:35.177Z</time>
      </trkpt>
      <trkpt lat="46.08663" lon="6.72703">
        <ele>776.055134</ele>
        <time>2024-05-17T20:28:52.157Z</time>
      </trkpt>
      <trkpt lat="46.08649" lon="6.72754">
        <ele>771.233503</ele>
        <time>2024-05-17T20:29:15.269Z</time>
      </trkpt>
      <trkpt lat="46.08622" lon="6.7271">
        <ele>765.221952</ele>
        <time>2024-05-17T20:29:40.025Z</time>
      </trkpt>
      <trkpt lat="46.08605" lon="6.72713">
        <ele>762.764573</ele>
        <time>2024-05-17T20:29:50.430Z</time>
      </trkpt>
      <trkpt lat="46.08603" lon="6.72721">
        <ele>761.879794</ele>
        <time>2024-05-17T20:29:54.014Z</time>
      </trkpt>
      <trkpt lat="46.08602" lon="6.72751">
        <ele>758.778113</ele>
        <time>2024-05-17T20:30:06.670Z</time>
      </trkpt>
      <trkpt lat="46.08599" lon="6.72755">
        <ele>758.216332</ele>
        <time>2024-05-17T20:30:09.153Z</time>
      </trkpt>
      <trkpt lat="46.08593" lon="6.72755">
        <ele>757.239257</ele>
        <time>2024-05-17T20:30:12.798Z</time>
      </trkpt>
      <trkpt lat="46.08546" lon="6.72747">
        <ele>750.279526</ele>
        <time>2024-05-17T20:30:41.551Z</time>
      </trkpt>
      <trkpt lat="46.08531" lon="6.72739">
        <ele>747.785853</ele>
        <time>2024-05-17T20:30:51.268Z</time>
      </trkpt>
      <trkpt lat="46.0851" lon="6.72722">
        <ele>743.717716</ele>
        <time>2024-05-17T20:31:05.900Z</time>
      </trkpt>
      <trkpt lat="46.08508" lon="6.72727">
        <ele>743.031527</ele>
        <time>2024-05-17T20:31:08.332Z</time>
      </trkpt>
      <trkpt lat="46.08507" lon="6.72766">
        <ele>738.429372</ele>
        <time>2024-05-17T20:31:24.778Z</time>
      </trkpt>
      <trkpt lat="46.08507" lon="6.72791">
        <ele>735.429773</ele>
        <time>2024-05-17T20:31:35.313Z</time>
      </trkpt>
      <trkpt lat="46.08502" lon="6.72799">
        <ele>734.115071</ele>
        <time>2024-05-17T20:31:39.851Z</time>
      </trkpt>
      <trkpt lat="46.08484" lon="6.72787">
        <ele>730.710952</ele>
        <time>2024-05-17T20:31:51.899Z</time>
      </trkpt>
      <trkpt lat="46.08467" lon="6.7278">
        <ele>727.725708</ele>
        <time>2024-05-17T20:32:02.641Z</time>
      </trkpt>
      <trkpt lat="46.08459" lon="6.72781">
        <ele>726.438533</ele>
        <time>2024-05-17T20:32:07.519Z</time>
      </trkpt>
      <trkpt lat="46.08449" lon="6.72782">
        <ele>724.688614</ele>
        <time>2024-05-17T20:32:13.609Z</time>
      </trkpt>
      <trkpt lat="46.08439" lon="6.72769">
        <ele>722.382706</ele>
        <time>2024-05-17T20:32:21.790Z</time>
      </trkpt>
      <trkpt lat="46.08427" lon="6.7276">
        <ele>720.102546</ele>
        <time>2024-05-17T20:32:30.008Z</time>
      </trkpt>
      <trkpt lat="46.08423" lon="6.72762">
        <ele>719.329877</ele>
        <time>2024-05-17T20:32:32.580Z</time>
      </trkpt>
      <trkpt lat="46.08422" lon="6.72775">
        <ele>717.857615</ele>
        <time>2024-05-17T20:32:38.092Z</time>
      </trkpt>
      <trkpt lat="46.08414" lon="6.72777">
        <ele>717.304986</ele>
        <time>2024-05-17T20:32:43.025Z</time>
      </trkpt>
      <trkpt lat="46.08413" lon="6.7278">
        <ele>717.109447</ele>
        <time>2024-05-17T20:32:44.428Z</time>
      </trkpt>
      <trkpt lat="46.08411" lon="6.72793">
        <ele>716.452312</ele>
        <time>2024-05-17T20:32:50.039Z</time>
      </trkpt>
      <trkpt lat="46.08389" lon="6.72793">
        <ele>714.878052</ele>
        <time>2024-05-17T20:33:03.405Z</time>
      </trkpt>
      <trkpt lat="46.08388" lon="6.72743">
        <ele>712.336497</ele>
        <time>2024-05-17T20:33:24.484Z</time>
      </trkpt>
      <trkpt lat="46.08372" lon="6.72741">
        <ele>711.212343</ele>
        <time>2024-05-17T20:33:34.241Z</time>
      </trkpt>
      <trkpt lat="46.08344" lon="6.72728">
        <ele>709.1066</ele>
        <time>2024-05-17T20:33:52.113Z</time>
      </trkpt>
      <trkpt lat="46.08339" lon="6.72728">
        <ele>708.752639</ele>
        <time>2024-05-17T20:33:55.151Z</time>
      </trkpt>
      <trkpt lat="46.08325" lon="6.72727">
        <ele>707.697214</ele>
        <time>2024-05-17T20:34:03.667Z</time>
      </trkpt>
      <trkpt lat="46.0832" lon="6.72721">
        <ele>707.201209</ele>
        <time>2024-05-17T20:34:07.620Z</time>
      </trkpt>
      <trkpt lat="46.08309" lon="6.72718">
        <ele>706.457587</ele>
        <time>2024-05-17T20:34:14.421Z</time>
      </trkpt>
      <trkpt lat="46.08283" lon="6.72713">
        <ele>704.928285</ele>
        <time>2024-05-17T20:34:30.357Z</time>
      </trkpt>
      <trkpt lat="46.08271" lon="6.72706">
        <ele>704.857237</ele>
        <time>2024-05-17T20:34:39.196Z</time>
      </trkpt>
      <trkpt lat="46.08264" lon="6.72706">
        <ele>704.818273</ele>
        <time>2024-05-17T20:34:43.974Z</time>
      </trkpt>
      <trkpt lat="46.08262" lon="6.72706">
        <ele>704.811137</ele>
        <time>2024-05-17T20:34:45.347Z</time>
      </trkpt>
      <trkpt lat="46.08247" lon="6.72707">
        <ele>704.728744</ele>
        <time>2024-05-17T20:34:55.600Z</time>
      </trkpt>
      <trkpt lat="46.08229" lon="6.7271">
        <ele>704.625932</ele>
        <time>2024-05-17T20:35:07.964Z</time>
      </trkpt>
      <trkpt lat="46.08224" lon="6.7271">
        <ele>704.600578</ele>
        <time>2024-05-17T20:35:11.382Z</time>
      </trkpt>
      <trkpt lat="46.08221" lon="6.72711">
        <ele>704.581802</ele>
        <time>2024-05-17T20:35:13.481Z</time>
      </trkpt>
      <trkpt lat="46.08217" lon="6.72711">
        <ele>704.563026</ele>
        <time>2024-05-17T20:35:16.218Z</time>
      </trkpt>
      <trkpt lat="46.08189" lon="6.72714">
        <ele>704.408136</ele>
        <time>2024-05-17T20:35:35.386Z</time>
      </trkpt>
      <trkpt lat="46.08155" lon="6.72714">
        <ele>704.223414</ele>
        <time>2024-05-17T20:35:58.604Z</time>
      </trkpt>
      <trkpt lat="46.08126" lon="6.72714">
        <ele>704.061165</ele>
        <time>2024-05-17T20:36:18.397Z</time>
      </trkpt>
      <trkpt lat="46.08099" lon="6.72717">
        <ele>704.153248</ele>
        <time>2024-05-17T20:36:37.399Z</time>
      </trkpt>
      <trkpt lat="46.08063" lon="6.72729">
        <ele>704.753687</ele>
        <time>2024-05-17T20:37:04.384Z</time>
      </trkpt>
      <trkpt lat="46.08061" lon="6.7273">
        <ele>704.784135</ele>
        <time>2024-05-17T20:37:05.921Z</time>
      </trkpt>
      <trkpt lat="46.08048" lon="6.72741">
        <ele>705.033955</ele>
        <time>2024-05-17T20:37:16.941Z</time>
      </trkpt>
      <trkpt lat="46.08035" lon="6.72754">
        <ele>705.285757</ele>
        <time>2024-05-17T20:37:28.484Z</time>
      </trkpt>
      <trkpt lat="46.08027" lon="6.72774">
        <ele>705.546848</ele>
        <time>2024-05-17T20:37:40.182Z</time>
      </trkpt>
      <trkpt lat="46.08021" lon="6.7279">
        <ele>705.745544</ele>
        <time>2024-05-17T20:37:49.382Z</time>
      </trkpt>
      <trkpt lat="46.08013" lon="6.72793">
        <ele>705.883865</ele>
        <time>2024-05-17T20:37:55.428Z</time>
      </trkpt>
      <trkpt lat="46.07991" lon="6.72836">
        <ele>706.486649</ele>
        <time>2024-05-17T20:38:22.497Z</time>
      </trkpt>
      <trkpt lat="46.07988" lon="6.72841">
        <ele>706.556683</ele>
        <time>2024-05-17T20:38:25.836Z</time>
      </trkpt>
      <trkpt lat="46.07921" lon="6.72963">
        <ele>707.452669</ele>
        <time>2024-05-17T20:39:42.733Z</time>
      </trkpt>
      <trkpt lat="46.0787" lon="6.72906">
        <ele>707.86783</ele>
        <time>2024-05-17T20:40:28.440Z</time>
      </trkpt>
      <trkpt lat="46.07821" lon="6.72871">
        <ele>707.746181</ele>
        <time>2024-05-17T20:41:06.151Z</time>
      </trkpt>
      <trkpt lat="46.07791" lon="6.72836">
        <ele>707.320047</ele>
        <time>2024-05-17T20:41:32.059Z</time>
      </trkpt>
      <trkpt lat="46.07749" lon="6.72787">
        <ele>706.71391</ele>
        <time>2024-05-17T20:42:08.311Z</time>
      </trkpt>
      <trkpt lat="46.0772" lon="6.72759">
        <ele>706.323222</ele>
        <time>2024-05-17T20:42:31.731Z</time>
      </trkpt>
      <trkpt lat="46.07675" lon="6.72715">
        <ele>705.32874</ele>
        <time>2024-05-17T20:43:07.441Z</time>
      </trkpt>
      <trkpt lat="46.0766" lon="6.72706">
        <ele>704.933522</ele>
        <time>2024-05-17T20:43:17.921Z</time>
      </trkpt>
      <trkpt lat="46.07635" lon="6.72699">
        <ele>704.288364</ele>
        <time>2024-05-17T20:43:34.297Z</time>
      </trkpt>
      <trkpt lat="46.07562" lon="6.72692">
        <ele>702.506427</ele>
        <time>2024-05-17T20:44:21.480Z</time>
      </trkpt>
      <trkpt lat="46.0754" lon="6.72683">
        <ele>701.935671</ele>
        <time>2024-05-17T20:44:36.202Z</time>
      </trkpt>
      <trkpt lat="46.0753" lon="6.72673">
        <ele>701.637191</ele>
        <time>2024-05-17T20:44:44.047Z</time>
      </trkpt>
      <trkpt lat="46.07524" lon="6.7266">
        <ele>701.376904</ele>
        <time>2024-05-17T20:44:51.039Z</time>
      </trkpt>
      <trkpt lat="46.07507" lon="6.72607">
        <ele>700.456106</ele>
        <time>2024-05-17T20:45:17.290Z</time>
      </trkpt>
      <trkpt lat="46.07505" lon="6.72584">
        <ele>700.093413</ele>
        <time>2024-05-17T20:45:27.716Z</time>
      </trkpt>
      <trkpt lat="46.07512" lon="6.72541">
        <ele>699.404029</ele>
        <time>2024-05-17T20:45:47.586Z</time>
      </trkpt>
      <trkpt lat="46.0753" lon="6.72474">
        <ele>698.264654</ele>
        <time>2024-05-17T20:46:19.875Z</time>
      </trkpt>
      <trkpt lat="46.07571" lon="6.72329">
        <ele>697.815593</ele>
        <time>2024-05-17T20:47:34.345Z</time>
      </trkpt>
      <trkpt lat="46.07597" lon="6.72239">
        <ele>698.084089</ele>
        <time>2024-05-17T20:48:21.883Z</time>
      </trkpt>
      <trkpt lat="46.07606" lon="6.72159">
        <ele>698.701692</ele>
        <time>2024-05-17T20:49:02.273Z</time>
      </trkpt>
      <trkpt lat="46.0762" lon="6.72073">
        <ele>700.160399</ele>
        <time>2024-05-17T20:49:48.107Z</time>
      </trkpt>
      <trkpt lat="46.07632" lon="6.71958">
        <ele>702.074258</ele>
        <time>2024-05-17T20:50:48.431Z</time>
      </trkpt>
      <trkpt lat="46.07632" lon="6.71939">
        <ele>702.399421</ele>
        <time>2024-05-17T20:50:58.316Z</time>
      </trkpt>
      <trkpt lat="46.07628" lon="6.71901">
        <ele>702.326519</ele>
        <time>2024-05-17T20:51:16.674Z</time>
      </trkpt>
      <trkpt lat="46.07628" lon="6.71889">
        <ele>702.257964</ele>
        <time>2024-05-17T20:51:22.310Z</time>
      </trkpt>
      <trkpt lat="46.07631" lon="6.71879">
        <ele>702.193886</ele>
        <time>2024-05-17T20:51:27.424Z</time>
      </trkpt>
      <trkpt lat="46.07632" lon="6.71864">
        <ele>702.108716</ele>
        <time>2024-05-17T20:51:34.503Z</time>
      </trkpt>
      <trkpt lat="46.07637" lon="6.71846">
        <ele>701.998893</ele>
        <time>2024-05-17T20:51:43.612Z</time>
      </trkpt>
      <trkpt lat="46.07643" lon="6.71836">
        <ele>701.91483</ele>
        <time>2024-05-17T20:51:49.804Z</time>
      </trkpt>
      <trkpt lat="46.07646" lon="6.71829">
        <ele>701.872177</ele>
        <time>2024-05-17T20:51:53.678Z</time>
      </trkpt>
      <trkpt lat="46.07648" lon="6.71792">
        <ele>701.656969</ele>
        <time>2024-05-17T20:52:11.102Z</time>
      </trkpt>
      <trkpt lat="46.07661" lon="6.71688">
        <ele>701.053431</ele>
        <time>2024-05-17T20:53:00.734Z</time>
      </trkpt>
      <trkpt lat="46.07677" lon="6.71589">
        <ele>698.547279</ele>
        <time>2024-05-17T20:53:44.726Z</time>
      </trkpt>
      <trkpt lat="46.07703" lon="6.71508">
        <ele>696.23553</ele>
        <time>2024-05-17T20:54:23.148Z</time>
      </trkpt>
      <trkpt lat="46.07708" lon="6.71497">
        <ele>695.885088</ele>
        <time>2024-05-17T20:54:28.791Z</time>
      </trkpt>
      <trkpt lat="46.07733" lon="6.71467">
        <ele>694.666043</ele>
        <time>2024-05-17T20:54:48.969Z</time>
      </trkpt>
      <trkpt lat="46.07736" lon="6.71457">
        <ele>694.392419</ele>
        <time>2024-05-17T20:54:53.675Z</time>
      </trkpt>
      <trkpt lat="46.07739" lon="6.7144">
        <ele>694.074777</ele>
        <time>2024-05-17T20:55:01.482Z</time>
      </trkpt>
      <trkpt lat="46.0774" lon="6.71428">
        <ele>693.890509</ele>
        <time>2024-05-17T20:55:06.927Z</time>
      </trkpt>
      <trkpt lat="46.07761" lon="6.7141">
        <ele>693.310059</ele>
        <time>2024-05-17T20:55:22.712Z</time>
      </trkpt>
      <trkpt lat="46.07772" lon="6.71395">
        <ele>692.937893</ele>
        <time>2024-05-17T20:55:32.470Z</time>
      </trkpt>
      <trkpt lat="46.07779" lon="6.71392">
        <ele>692.787507</ele>
        <time>2024-05-17T20:55:37.233Z</time>
      </trkpt>
      <trkpt lat="46.07785" lon="6.71361">
        <ele>692.254605</ele>
        <time>2024-05-17T20:55:51.652Z</time>
      </trkpt>
      <trkpt lat="46.0782" lon="6.71258">
        <ele>690.376901</ele>
        <time>2024-05-17T20:56:43.078Z</time>
      </trkpt>
      <trkpt lat="46.07821" lon="6.71257">
        <ele>690.363045</ele>
        <time>2024-05-17T20:56:43.894Z</time>
      </trkpt>
      <trkpt lat="46.07867" lon="6.71181">
        <ele>689.841324</ele>
        <time>2024-05-17T20:57:31.378Z</time>
      </trkpt>
      <trkpt lat="46.07871" lon="6.71169">
        <ele>689.800387</ele>
        <time>2024-05-17T20:57:37.704Z</time>
      </trkpt>
      <trkpt lat="46.07887" lon="6.71052">
        <ele>689.446893</ele>
        <time>2024-05-17T20:58:34.393Z</time>
      </trkpt>
      <trkpt lat="46.07893" lon="6.71025">
        <ele>689.364795</ele>
        <time>2024-05-17T20:58:47.874Z</time>
      </trkpt>
      <trkpt lat="46.07906" lon="6.71018">
        <ele>689.313895</ele>
        <time>2024-05-17T20:58:57.402Z</time>
      </trkpt>
      <trkpt lat="46.07932" lon="6.71013">
        <ele>689.248996</ele>
        <time>2024-05-17T20:59:15.477Z</time>
      </trkpt>
      <trkpt lat="46.07943" lon="6.71004">
        <ele>689.218448</ele>
        <time>2024-05-17T20:59:24.194Z</time>
      </trkpt>
      <trkpt lat="46.07953" lon="6.70989">
        <ele>689.183689</ele>
        <time>2024-05-17T20:59:34.140Z</time>
      </trkpt>
      <trkpt lat="46.07979" lon="6.70921">
        <ele>689.053348</ele>
        <time>2024-05-17T21:00:11.261Z</time>
      </trkpt>
      <trkpt lat="46.07992" lon="6.70896">
        <ele>688.999572</ele>
        <time>2024-05-17T21:00:26.195Z</time>
      </trkpt>
      <trkpt lat="46.08002" lon="6.70887">
        <ele>688.971524</ele>
        <time>2024-05-17T21:00:34.321Z</time>
      </trkpt>
      <trkpt lat="46.08011" lon="6.70882">
        <ele>688.946442</ele>
        <time>2024-05-17T21:00:40.965Z</time>
      </trkpt>
      <trkpt lat="46.08032" lon="6.70884">
        <ele>688.896391</ele>
        <time>2024-05-17T21:00:55.471Z</time>
      </trkpt>
      <trkpt lat="46.08046" lon="6.70881">
        <ele>688.782722</ele>
        <time>2024-05-17T21:01:05.060Z</time>
      </trkpt>
      <trkpt lat="46.08073" lon="6.70877">
        <ele>688.485271</ele>
        <time>2024-05-17T21:01:23.285Z</time>
      </trkpt>
      <trkpt lat="46.08073" lon="6.70879">
        <ele>688.466348</ele>
        <time>2024-05-17T21:01:24.209Z</time>
      </trkpt>
      <trkpt lat="46.08074" lon="6.70888">
        <ele>688.397093</ele>
        <time>2024-05-17T21:01:28.454Z</time>
      </trkpt>
      <trkpt lat="46.08075" lon="6.70895">
        <ele>688.344974</ele>
        <time>2024-05-17T21:01:31.788Z</time>
      </trkpt>
      <trkpt lat="46.08081" lon="6.70896">
        <ele>688.281244</ele>
        <time>2024-05-17T21:01:35.848Z</time>
      </trkpt>
      <trkpt lat="46.0809" lon="6.70904">
        <ele>688.163805</ele>
        <time>2024-05-17T21:01:42.945Z</time>
      </trkpt>
      <trkpt lat="46.08094" lon="6.70912">
        <ele>688.091111</ele>
        <time>2024-05-17T21:01:47.543Z</time>
      </trkpt>
      <trkpt lat="46.08108" lon="6.70939">
        <ele>687.837067</ele>
        <time>2024-05-17T21:02:03.248Z</time>
      </trkpt>
      <trkpt lat="46.08129" lon="6.70959">
        <ele>687.561679</ele>
        <time>2024-05-17T21:02:20.149Z</time>
      </trkpt>
      <trkpt lat="46.08136" lon="6.70988">
        <ele>687.333456</ele>
        <time>2024-05-17T21:02:34.460Z</time>
      </trkpt>
      <trkpt lat="46.08135" lon="6.70999">
        <ele>687.249127</ele>
        <time>2024-05-17T21:02:39.628Z</time>
      </trkpt>
      <trkpt lat="46.08138" lon="6.71028">
        <ele>687.027563</ele>
        <time>2024-05-17T21:02:53.287Z</time>
      </trkpt>
      <trkpt lat="46.08135" lon="6.71049">
        <ele>686.916632</ele>
        <time>2024-05-17T21:03:03.380Z</time>
      </trkpt>
      <trkpt lat="46.08126" lon="6.71067">
        <ele>686.894257</ele>
        <time>2024-05-17T21:03:14.019Z</time>
      </trkpt>
      <trkpt lat="46.08106" lon="6.71098">
        <ele>686.851679</ele>
        <time>2024-05-17T21:03:34.318Z</time>
      </trkpt>
      <trkpt lat="46.08085" lon="6.7112">
        <ele>686.813399</ele>
        <time>2024-05-17T21:03:52.261Z</time>
      </trkpt>
      <trkpt lat="46.0807" lon="6.71158">
        <ele>686.769164</ele>
        <time>2024-05-17T21:04:13.225Z</time>
      </trkpt>
      <trkpt lat="46.08059" lon="6.71178">
        <ele>686.74377</ele>
        <time>2024-05-17T21:04:25.464Z</time>
      </trkpt>
      <trkpt lat="46.08046" lon="6.71193">
        <ele>686.718801</ele>
        <time>2024-05-17T21:04:36.973Z</time>
      </trkpt>
      <trkpt lat="46.08034" lon="6.71202">
        <ele>686.699186</ele>
        <time>2024-05-17T21:04:46.323Z</time>
      </trkpt>
      <trkpt lat="46.07978" lon="6.71231">
        <ele>686.663574</ele>
        <time>2024-05-17T21:05:27.563Z</time>
      </trkpt>
      <trkpt lat="46.07974" lon="6.71236">
        <ele>686.663574</ele>
        <time>2024-05-17T21:05:31.239Z</time>
      </trkpt>
      <trkpt lat="46.07958" lon="6.71254">
        <ele>686.663574</ele>
        <time>2024-05-17T21:05:45.331Z</time>
      </trkpt>
      <trkpt lat="46.07943" lon="6.71294">
        <ele>686.663574</ele>
        <time>2024-05-17T21:06:07.232Z</time>
      </trkpt>
      <trkpt lat="46.07933" lon="6.71353">
        <ele>686.663574</ele>
        <time>2024-05-17T21:06:36.484Z</time>
      </trkpt>
    </trkseg>
  </trk>
</gpx>